Wetterdaten: Freitag, 23.01.2015
Datum Zeit Temp. Aussen +5cm Feuchte Auss Luftdruck Regen Sonnenschein Regendauer Solar Windben
23.01.2015 00:00 0,5 C -0,6 C 90 % 1022,0 hPa 0,0 l/m 0 min 0 min 0 W/m 14,6 km/h (3 Bft)
23.01.2015 00:02 0,5 C -0,6 C 90 % 1022,0 hPa 0,0 l/m 0 min 0 min 0 W/m 16,7 km/h (3 Bft)
23.01.2015 00:05 0,5 C -0,6 C 90 % 1022,0 hPa 0,0 l/m 0 min 0 min 0 W/m 14,6 km/h (3 Bft)
23.01.2015 00:06 0,5 C -0,6 C 90 % 1022,0 hPa 0,0 l/m 0 min 0 min 0 W/m 14,6 km/h (3 Bft)
23.01.2015 00:12 0,5 C -0,6 C 90 % 1021,9 hPa 0,0 l/m 0 min 0 min 0 W/m 14,6 km/h (3 Bft)
23.01.2015 00:16 0,5 C -0,6 C 90 % 1022,0 hPa 0,0 l/m 0 min 0 min 0 W/m 14,6 km/h (3 Bft)
23.01.2015 00:18 0,5 C -0,6 C 90 % 1022,0 hPa 0,0 l/m 0 min 0 min 0 W/m 12,6 km/h (3 Bft)
23.01.2015 00:20 0,5 C -0,6 C 90 % 1022,0 hPa 0,0 l/m 0 min 0 min 0 W/m 14,6 km/h (3 Bft)
23.01.2015 00:22 0,5 C -0,6 C 90 % 1021,9 hPa 0,0 l/m 0 min 0 min 0 W/m 14,6 km/h (3 Bft)
23.01.2015 00:24 0,5 C -0,6 C 90 % 1022,0 hPa 0,0 l/m 0 min 0 min 0 W/m 14,6 km/h (3 Bft)
23.01.2015 00:26 0,5 C -0,6 C 90 % 1022,0 hPa 0,0 l/m 0 min 0 min 0 W/m 10,5 km/h (2 Bft)
23.01.2015 00:28 0,5 C -0,6 C 90 % 1022,0 hPa 0,0 l/m 0 min 0 min 0 W/m 16,7 km/h (3 Bft)
23.01.2015 00:30 0,5 C -0,6 C 89 % 1022,0 hPa 0,0 l/m 0 min 0 min 0 W/m 12,6 km/h (3 Bft)
23.01.2015 00:32 0,5 C -0,6 C 89 % 1022,0 hPa 0,0 l/m 0 min 0 min 0 W/m 8,4 km/h (2 Bft)
23.01.2015 00:34 0,5 C -0,6 C 89 % 1022,0 hPa 0,0 l/m 0 min 0 min 0 W/m 10,5 km/h (2 Bft)
23.01.2015 00:36 0,5 C -0,6 C 89 % 1022,0 hPa 0,0 l/m 0 min 0 min 0 W/m 16,7 km/h (3 Bft)
23.01.2015 00:38 0,5 C -0,6 C 89 % 1022,0 hPa 0,0 l/m 0 min 0 min 0 W/m 14,6 km/h (3 Bft)
23.01.2015 00:40 0,5 C -0,6 C 89 % 1022,1 hPa 0,0 l/m 0 min 0 min 0 W/m 12,6 km/h (3 Bft)
23.01.2015 00:42 0,5 C -0,6 C 89 % 1022,1 hPa 0,0 l/m 0 min 0 min 0 W/m 12,6 km/h (3 Bft)
23.01.2015 00:44 0,5 C 0,0 C 89 % 1022,2 hPa 0,0 l/m 0 min 0 min 0 W/m 12,6 km/h (3 Bft)
23.01.2015 00:46 0,5 C 0,0 C 89 % 1022,1 hPa 0,0 l/m 0 min 0 min 0 W/m 16,7 km/h (3 Bft)
23.01.2015 00:48 0,5 C 0,0 C 89 % 1022,1 hPa 0,0 l/m 0 min 0 min 0 W/m 16,7 km/h (3 Bft)
23.01.2015 00:50 0,5 C -0,6 C 89 % 1022,1 hPa 0,0 l/m 0 min 0 min 0 W/m 12,6 km/h (3 Bft)
23.01.2015 00:52 0,5 C -0,6 C 89 % 1022,1 hPa 0,0 l/m 0 min 0 min 0 W/m 10,5 km/h (2 Bft)
23.01.2015 00:54 0,5 C -0,6 C 89 % 1022,1 hPa 0,0 l/m 0 min 0 min 0 W/m 10,5 km/h (2 Bft)
23.01.2015 00:56 0,5 C -0,6 C 89 % 1022,1 hPa 0,0 l/m 0 min 0 min 0 W/m 12,6 km/h (3 Bft)
23.01.2015 00:58 0,5 C -0,6 C 89 % 1022,1 hPa 0,0 l/m 0 min 0 min 0 W/m 12,6 km/h (3 Bft)
23.01.2015 01:00 0,5 C -0,6 C 89 % 1022,1 hPa 0,0 l/m 0 min 0 min 0 W/m 16,7 km/h (3 Bft)
23.01.2015 01:02 0,5 C -0,6 C 89 % 1022,1 hPa 0,0 l/m 0 min 0 min 0 W/m 10,5 km/h (2 Bft)
23.01.2015 01:04 0,5 C -0,6 C 89 % 1022,1 hPa 0,0 l/m 0 min 0 min 0 W/m 10,5 km/h (2 Bft)
23.01.2015 01:06 0,5 C -0,6 C 89 % 1022,0 hPa 0,0 l/m 0 min 0 min 0 W/m 12,6 km/h (3 Bft)
23.01.2015 01:08 0,5 C -0,6 C 89 % 1022,1 hPa 0,0 l/m 0 min 0 min 0 W/m 12,6 km/h (3 Bft)
23.01.2015 01:10 0,5 C -0,6 C 89 % 1022,1 hPa 0,0 l/m 0 min 0 min 0 W/m 16,7 km/h (3 Bft)
23.01.2015 01:12 0,5 C -0,6 C 89 % 1022,1 hPa 0,0 l/m 0 min 0 min 0 W/m 14,6 km/h (3 Bft)
23.01.2015 01:14 0,5 C -0,6 C 89 % 1022,1 hPa 0,0 l/m 0 min 0 min 0 W/m 12,6 km/h (3 Bft)
23.01.2015 01:16 0,5 C -0,6 C 89 % 1022,1 hPa 0,0 l/m 0 min 0 min 0 W/m 14,6 km/h (3 Bft)
23.01.2015 01:18 0,5 C -0,6 C 89 % 1022,1 hPa 0,0 l/m 0 min 0 min 0 W/m 14,6 km/h (3 Bft)
23.01.2015 01:20 0,5 C -0,6 C 89 % 1022,0 hPa 0,0 l/m 0 min 0 min 0 W/m 12,6 km/h (3 Bft)
23.01.2015 01:22 0,5 C -0,6 C 89 % 1022,0 hPa 0,0 l/m 0 min 0 min 0 W/m 14,6 km/h (3 Bft)
23.01.2015 01:24 0,5 C -0,6 C 89 % 1022,0 hPa 0,0 l/m 0 min 0 min 0 W/m 14,6 km/h (3 Bft)
23.01.2015 01:26 0,5 C -0,6 C 89 % 1022,1 hPa 0,0 l/m 0 min 0 min 0 W/m 20,9 km/h (4 Bft)
23.01.2015 01:28 0,5 C -0,6 C 89 % 1022,1 hPa 0,0 l/m 0 min 0 min 0 W/m 16,7 km/h (3 Bft)
23.01.2015 01:30 0,5 C -0,6 C 89 % 1022,1 hPa 0,0 l/m 0 min 0 min 0 W/m 14,6 km/h (3 Bft)
23.01.2015 01:32 0,5 C -0,6 C 89 % 1022,2 hPa 0,0 l/m 0 min 0 min 0 W/m 16,7 km/h (3 Bft)
23.01.2015 01:34 0,5 C -0,6 C 89 % 1022,2 hPa 0,0 l/m 0 min 0 min 0 W/m 14,6 km/h (3 Bft)
23.01.2015 01:36 0,5 C -0,6 C 89 % 1022,2 hPa 0,0 l/m 0 min 0 min 0 W/m 12,6 km/h (3 Bft)
23.01.2015 01:38 0,5 C -0,6 C 89 % 1022,2 hPa 0,0 l/m 0 min 0 min 0 W/m 10,5 km/h (2 Bft)
23.01.2015 01:40 0,5 C -0,6 C 89 % 1022,2 hPa 0,0 l/m 0 min 0 min 0 W/m 16,7 km/h (3 Bft)
23.01.2015 01:42 0,5 C -0,6 C 89 % 1022,3 hPa 0,0 l/m 0 min 0 min 0 W/m 14,6 km/h (3 Bft)
23.01.2015 01:44 0,5 C -0,6 C 89 % 1022,3 hPa 0,0 l/m 0 min 0 min 0 W/m 14,6 km/h (3 Bft)
23.01.2015 01:46 0,5 C -0,6 C 89 % 1022,3 hPa 0,0 l/m 0 min 0 min 0 W/m 12,6 km/h (3 Bft)
23.01.2015 01:48 0,5 C -0,6 C 89 % 1022,3 hPa 0,0 l/m 0 min 0 min 0 W/m 16,7 km/h (3 Bft)
23.01.2015 01:50 0,5 C -0,6 C 89 % 1022,3 hPa 0,0 l/m 0 min 0 min 0 W/m 12,6 km/h (3 Bft)
23.01.2015 01:52 0,5 C -0,6 C 89 % 1022,4 hPa 0,0 l/m 0 min 0 min 0 W/m 16,7 km/h (3 Bft)
23.01.2015 01:54 0,5 C -0,6 C 89 % 1022,4 hPa 0,0 l/m 0 min 0 min 0 W/m 10,5 km/h (2 Bft)
23.01.2015 01:56 0,5 C -0,6 C 89 % 1022,4 hPa 0,0 l/m 0 min 0 min 0 W/m 14,6 km/h (3 Bft)
23.01.2015 01:58 0,5 C -0,6 C 89 % 1022,5 hPa 0,0 l/m 0 min 0 min 0 W/m 12,6 km/h (3 Bft)
23.01.2015 02:00 0,5 C -0,6 C 89 % 1022,5 hPa 0,0 l/m 0 min 0 min 0 W/m 10,5 km/h (2 Bft)
23.01.2015 02:02 0,5 C -0,6 C 89 % 1022,4 hPa 0,0 l/m 0 min 0 min 0 W/m 14,6 km/h (3 Bft)
23.01.2015 02:04 0,5 C -0,6 C 89 % 1022,5 hPa 0,0 l/m 0 min 0 min 0 W/m 12,6 km/h (3 Bft)
23.01.2015 02:06 0,4 C -0,6 C 89 % 1022,6 hPa 0,0 l/m 0 min 0 min 0 W/m 12,6 km/h (3 Bft)
23.01.2015 02:08 0,4 C -0,6 C 89 % 1022,5 hPa 0,0 l/m 0 min 0 min 0 W/m 16,7 km/h (3 Bft)
23.01.2015 02:10 0,4 C -0,6 C 89 % 1022,6 hPa 0,0 l/m 0 min 0 min 0 W/m 12,6 km/h (3 Bft)
23.01.2015 02:12 0,4 C -0,6 C 89 % 1022,6 hPa 0,0 l/m 0 min 0 min 0 W/m 14,6 km/h (3 Bft)
23.01.2015 02:14 0,4 C -0,6 C 89 % 1022,6 hPa 0,0 l/m 0 min 0 min 0 W/m 18,8 km/h (3 Bft)
23.01.2015 02:16 0,4 C -0,6 C 89 % 1022,5 hPa 0,0 l/m 0 min 0 min 0 W/m 12,6 km/h (3 Bft)
23.01.2015 02:18 0,4 C -0,6 C 89 % 1022,6 hPa 0,0 l/m 0 min 0 min 0 W/m 20,9 km/h (4 Bft)
23.01.2015 02:20 0,3 C -0,6 C 89 % 1022,6 hPa 0,0 l/m 0 min 0 min 0 W/m 20,9 km/h (4 Bft)
23.01.2015 02:22 0,3 C -0,6 C 89 % 1022,6 hPa 0,0 l/m 0 min 0 min 0 W/m 16,7 km/h (3 Bft)
23.01.2015 02:24 0,3 C -0,6 C 89 % 1022,5 hPa 0,0 l/m 0 min 0 min 0 W/m 20,9 km/h (4 Bft)
23.01.2015 02:26 0,3 C -0,6 C 89 % 1022,5 hPa 0,0 l/m 0 min 0 min 0 W/m 16,7 km/h (3 Bft)
23.01.2015 02:28 0,2 C -0,6 C 89 % 1022,5 hPa 0,0 l/m 0 min 0 min 0 W/m 18,8 km/h (3 Bft)
23.01.2015 02:30 0,2 C -0,6 C 89 % 1022,5 hPa 0,0 l/m 0 min 0 min 0 W/m 16,7 km/h (3 Bft)
23.01.2015 02:32 0,2 C -1,1 C 89 % 1022,5 hPa 0,0 l/m 0 min 0 min 0 W/m 18,8 km/h (3 Bft)
23.01.2015 02:34 0,2 C -1,1 C 89 % 1022,5 hPa 0,0 l/m 0 min 0 min 0 W/m 20,9 km/h (4 Bft)
23.01.2015 02:36 0,2 C -1,1 C 89 % 1022,4 hPa 0,0 l/m 0 min 0 min 0 W/m 16,7 km/h (3 Bft)
23.01.2015 02:38 0,1 C -1,1 C 89 % 1022,4 hPa 0,0 l/m 0 min 0 min 0 W/m 14,6 km/h (3 Bft)
23.01.2015 02:40 0,1 C -1,1 C 89 % 1022,4 hPa 0,0 l/m 0 min 0 min 0 W/m 16,7 km/h (3 Bft)
23.01.2015 02:42 0,1 C -1,1 C 89 % 1022,5 hPa 0,0 l/m 0 min 0 min 0 W/m 14,6 km/h (3 Bft)
23.01.2015 02:44 0,1 C -1,1 C 90 % 1022,5 hPa 0,0 l/m 0 min 0 min 0 W/m 16,7 km/h (3 Bft)
23.01.2015 02:46 0,0 C -1,1 C 90 % 1022,5 hPa 0,0 l/m 0 min 0 min 0 W/m 16,7 km/h (3 Bft)
23.01.2015 02:48 0,0 C -1,1 C 90 % 1022,4 hPa 0,0 l/m 0 min 0 min 0 W/m 16,7 km/h (3 Bft)
23.01.2015 02:50 0,0 C -1,1 C 90 % 1022,4 hPa 0,0 l/m 0 min 0 min 0 W/m 16,7 km/h (3 Bft)
23.01.2015 02:52 -0,1 C -1,1 C 90 % 1022,4 hPa 0,0 l/m 0 min 0 min 0 W/m 16,7 km/h (3 Bft)
23.01.2015 02:54 -0,1 C -1,1 C 90 % 1022,2 hPa 0,0 l/m 0 min 0 min 0 W/m 14,6 km/h (3 Bft)
23.01.2015 02:56 -0,1 C -1,1 C 90 % 1022,4 hPa 0,0 l/m 0 min 0 min 0 W/m 12,6 km/h (3 Bft)
23.01.2015 02:58 -0,1 C -1,1 C 90 % 1022,3 hPa 0,0 l/m 0 min 0 min 0 W/m 14,6 km/h (3 Bft)
23.01.2015 03:00 -0,2 C -1,7 C 90 % 1022,4 hPa 0,0 l/m 0 min 0 min 0 W/m 14,6 km/h (3 Bft)
23.01.2015 03:02 -0,2 C -1,7 C 90 % 1022,2 hPa 0,0 l/m 0 min 0 min 0 W/m 12,6 km/h (3 Bft)
23.01.2015 03:04 -0,2 C -1,7 C 90 % 1022,2 hPa 0,0 l/m 0 min 0 min 0 W/m 16,7 km/h (3 Bft)
23.01.2015 03:06 -0,2 C -1,7 C 90 % 1022,2 hPa 0,0 l/m 0 min 0 min 0 W/m 16,7 km/h (3 Bft)
23.01.2015 03:08 -0,3 C -1,7 C 90 % 1022,2 hPa 0,0 l/m 0 min 0 min 0 W/m 14,6 km/h (3 Bft)
23.01.2015 03:10 -0,3 C -1,7 C 90 % 1022,1 hPa 0,0 l/m 0 min 0 min 0 W/m 14,6 km/h (3 Bft)
23.01.2015 03:12 -0,3 C -1,7 C 90 % 1022,2 hPa 0,0 l/m 0 min 0 min 0 W/m 12,6 km/h (3 Bft)
23.01.2015 03:14 -0,4 C -1,7 C 90 % 1022,3 hPa 0,0 l/m 0 min 0 min 0 W/m 14,6 km/h (3 Bft)
23.01.2015 03:16 -0,4 C -1,7 C 90 % 1022,4 hPa 0,0 l/m 0 min 0 min 0 W/m 12,6 km/h (3 Bft)
23.01.2015 03:18 -0,4 C -1,7 C 90 % 1022,4 hPa 0,0 l/m 0 min 0 min 0 W/m 14,6 km/h (3 Bft)
23.01.2015 03:20 -0,5 C -1,7 C 90 % 1022,3 hPa 0,0 l/m 0 min 0 min 0 W/m 12,6 km/h (3 Bft)
23.01.2015 03:22 -0,5 C -1,7 C 90 % 1022,3 hPa 0,0 l/m 0 min 0 min 0 W/m 14,6 km/h (3 Bft)
23.01.2015 03:24 -0,6 C -2,2 C 90 % 1022,3 hPa 0,0 l/m 0 min 0 min 0 W/m 16,7 km/h (3 Bft)
23.01.2015 03:26 -0,6 C -2,2 C 90 % 1022,3 hPa 0,0 l/m 0 min 0 min 0 W/m 12,6 km/h (3 Bft)
23.01.2015 03:28 -0,6 C -2,2 C 90 % 1022,4 hPa 0,0 l/m 0 min 0 min 0 W/m 10,5 km/h (2 Bft)
23.01.2015 03:30 -0,7 C -2,2 C 90 % 1022,3 hPa 0,0 l/m 0 min 0 min 0 W/m 10,5 km/h (2 Bft)
23.01.2015 03:32 -0,7 C -2,2 C 91 % 1022,3 hPa 0,0 l/m 0 min 0 min 0 W/m 14,6 km/h (3 Bft)
23.01.2015 03:34 -0,7 C -2,2 C 91 % 1022,4 hPa 0,0 l/m 0 min 0 min 0 W/m 12,6 km/h (3 Bft)
23.01.2015 03:36 -0,7 C -2,2 C 91 % 1022,4 hPa 0,0 l/m 0 min 0 min 0 W/m 12,6 km/h (3 Bft)
23.01.2015 03:38 -0,8 C -2,2 C 91 % 1022,5 hPa 0,0 l/m 0 min 0 min 0 W/m 10,5 km/h (2 Bft)
23.01.2015 03:40 -0,8 C -2,2 C 91 % 1022,5 hPa 0,0 l/m 0 min 0 min 0 W/m 8,4 km/h (2 Bft)
23.01.2015 03:42 -0,8 C -2,2 C 91 % 1022,5 hPa 0,0 l/m 0 min 0 min 0 W/m 8,4 km/h (2 Bft)
23.01.2015 03:44 -0,8 C -2,2 C 91 % 1022,5 hPa 0,0 l/m 0 min 0 min 0 W/m 8,4 km/h (2 Bft)
23.01.2015 03:46 -0,9 C -2,2 C 91 % 1022,5 hPa 0,0 l/m 0 min 0 min 0 W/m 8,4 km/h (2 Bft)
23.01.2015 03:48 -0,9 C -2,2 C 91 % 1022,5 hPa 0,0 l/m 0 min 0 min 0 W/m 10,5 km/h (2 Bft)
23.01.2015 03:50 -0,9 C -2,2 C 91 % 1022,6 hPa 0,0 l/m 0 min 0 min 0 W/m 10,5 km/h (2 Bft)
23.01.2015 03:52 -0,9 C -2,2 C 91 % 1022,6 hPa 0,0 l/m 0 min 0 min 0 W/m 10,5 km/h (2 Bft)
23.01.2015 03:54 -1,0 C -2,2 C 91 % 1022,6 hPa 0,0 l/m 0 min 0 min 0 W/m 14,6 km/h (3 Bft)
23.01.2015 03:56 -1,0 C -2,2 C 91 % 1022,5 hPa 0,0 l/m 0 min 0 min 0 W/m 12,6 km/h (3 Bft)
23.01.2015 03:58 -1,0 C -2,2 C 91 % 1022,6 hPa 0,0 l/m 0 min 0 min 0 W/m 12,6 km/h (3 Bft)
23.01.2015 04:00 -1,1 C -2,2 C 91 % 1022,6 hPa 0,0 l/m 0 min 0 min 0 W/m 12,6 km/h (3 Bft)
23.01.2015 04:02 -1,1 C -2,2 C 91 % 1022,7 hPa 0,0 l/m 0 min 0 min 0 W/m 10,5 km/h (2 Bft)
23.01.2015 04:04 -1,1 C -2,2 C 91 % 1022,7 hPa 0,0 l/m 0 min 0 min 0 W/m 12,6 km/h (3 Bft)
23.01.2015 04:06 -1,1 C -2,2 C 91 % 1022,9 hPa 0,0 l/m 0 min 0 min 0 W/m 12,6 km/h (3 Bft)
23.01.2015 04:08 -1,1 C -2,2 C 91 % 1022,9 hPa 0,0 l/m 0 min 0 min 0 W/m 12,6 km/h (3 Bft)
23.01.2015 04:10 -1,1 C -2,2 C 91 % 1022,8 hPa 0,0 l/m 0 min 0 min 0 W/m 12,6 km/h (3 Bft)
23.01.2015 04:12 -1,2 C -2,2 C 92 % 1022,8 hPa 0,0 l/m 0 min 0 min 0 W/m 16,7 km/h (3 Bft)
23.01.2015 04:14 -1,2 C -2,2 C 92 % 1022,9 hPa 0,0 l/m 0 min 0 min 0 W/m 10,5 km/h (2 Bft)
23.01.2015 04:16 -1,2 C -2,2 C 92 % 1022,9 hPa 0,0 l/m 0 min 0 min 0 W/m 16,7 km/h (3 Bft)
23.01.2015 04:18 -1,2 C -2,2 C 92 % 1022,8 hPa 0,0 l/m 0 min 0 min 0 W/m 18,8 km/h (3 Bft)
23.01.2015 04:20 -1,2 C -2,2 C 92 % 1022,8 hPa 0,0 l/m 0 min 0 min 0 W/m 12,6 km/h (3 Bft)
23.01.2015 04:22 -1,2 C -2,2 C 92 % 1022,8 hPa 0,0 l/m 0 min 0 min 0 W/m 16,7 km/h (3 Bft)
23.01.2015 04:24 -1,2 C -2,2 C 92 % 1022,8 hPa 0,0 l/m 0 min 0 min 0 W/m 18,8 km/h (3 Bft)
23.01.2015 04:26 -1,3 C -2,2 C 92 % 1022,8 hPa 0,0 l/m 0 min 0 min 0 W/m 14,6 km/h (3 Bft)
23.01.2015 04:28 -1,3 C -2,2 C 92 % 1022,9 hPa 0,0 l/m 0 min 0 min 0 W/m 14,6 km/h (3 Bft)
23.01.2015 04:30 -1,3 C -2,2 C 92 % 1022,8 hPa 0,0 l/m 0 min 0 min 0 W/m 14,6 km/h (3 Bft)
23.01.2015 04:32 -1,3 C -2,2 C 92 % 1022,8 hPa 0,0 l/m 0 min 0 min 0 W/m 12,6 km/h (3 Bft)
23.01.2015 04:34 -1,3 C -2,8 C 92 % 1022,8 hPa 0,0 l/m 0 min 0 min 0 W/m 14,6 km/h (3 Bft)
23.01.2015 04:36 -1,3 C -2,8 C 92 % 1022,8 hPa 0,0 l/m 0 min 0 min 0 W/m 14,6 km/h (3 Bft)
23.01.2015 04:38 -1,3 C -2,8 C 92 % 1022,9 hPa 0,0 l/m 0 min 0 min 0 W/m 14,6 km/h (3 Bft)
23.01.2015 04:40 -1,4 C -2,8 C 92 % 1022,9 hPa 0,0 l/m 0 min 0 min 0 W/m 18,8 km/h (3 Bft)
23.01.2015 04:42 -1,4 C -2,8 C 92 % 1022,9 hPa 0,0 l/m 0 min 0 min 0 W/m 16,7 km/h (3 Bft)
23.01.2015 04:44 -1,4 C -2,8 C 92 % 1022,9 hPa 0,0 l/m 0 min 0 min 0 W/m 14,6 km/h (3 Bft)
23.01.2015 04:46 -1,4 C -2,8 C 92 % 1022,8 hPa 0,0 l/m 0 min 0 min 0 W/m 12,6 km/h (3 Bft)
23.01.2015 04:48 -1,4 C -2,8 C 92 % 1022,9 hPa 0,0 l/m 0 min 0 min 0 W/m 10,5 km/h (2 Bft)
23.01.2015 04:50 -1,4 C -2,8 C 92 % 1022,9 hPa 0,0 l/m 0 min 0 min 0 W/m 12,6 km/h (3 Bft)
23.01.2015 04:52 -1,5 C -2,8 C 92 % 1022,9 hPa 0,0 l/m 0 min 0 min 0 W/m 18,8 km/h (3 Bft)
23.01.2015 04:54 -1,5 C -2,8 C 92 % 1023,0 hPa 0,0 l/m 0 min 0 min 0 W/m 14,6 km/h (3 Bft)
23.01.2015 04:56 -1,5 C -2,8 C 93 % 1023,0 hPa 0,0 l/m 0 min 0 min 0 W/m 12,6 km/h (3 Bft)
23.01.2015 04:58 -1,6 C -2,8 C 93 % 1023,0 hPa 0,0 l/m 0 min 0 min 0 W/m 12,6 km/h (3 Bft)
23.01.2015 05:00 -1,6 C -2,8 C 93 % 1023,1 hPa 0,0 l/m 0 min 0 min 0 W/m 8,4 km/h (2 Bft)
23.01.2015 05:02 -1,6 C -2,8 C 93 % 1023,0 hPa 0,0 l/m 0 min 0 min 0 W/m 6,3 km/h (2 Bft)
23.01.2015 05:04 -1,6 C -2,8 C 93 % 1023,0 hPa 0,0 l/m 0 min 0 min 0 W/m 8,4 km/h (2 Bft)
23.01.2015 05:06 -1,6 C -2,8 C 93 % 1023,0 hPa 0,0 l/m 0 min 0 min 0 W/m 8,4 km/h (2 Bft)
23.01.2015 05:08 -1,6 C -2,8 C 93 % 1023,1 hPa 0,0 l/m 0 min 0 min 0 W/m 10,5 km/h (2 Bft)
23.01.2015 05:10 -1,6 C -2,8 C 93 % 1023,0 hPa 0,0 l/m 0 min 0 min 0 W/m 10,5 km/h (2 Bft)
23.01.2015 05:12 -1,6 C -2,8 C 93 % 1023,1 hPa 0,0 l/m 0 min 0 min 0 W/m 8,4 km/h (2 Bft)
23.01.2015 05:14 -1,7 C -2,8 C 93 % 1023,1 hPa 0,0 l/m 0 min 0 min 0 W/m 8,4 km/h (2 Bft)
23.01.2015 05:16 -1,7 C -2,8 C 93 % 1023,2 hPa 0,0 l/m 0 min 0 min 0 W/m 10,5 km/h (2 Bft)
23.01.2015 05:18 -1,7 C -2,8 C 93 % 1023,1 hPa 0,0 l/m 0 min 0 min 0 W/m 10,5 km/h (2 Bft)
23.01.2015 05:20 -1,7 C -2,8 C 93 % 1023,0 hPa 0,0 l/m 0 min 0 min 0 W/m 8,4 km/h (2 Bft)
23.01.2015 05:22 -1,7 C -2,8 C 93 % 1023,1 hPa 0,0 l/m 0 min 0 min 0 W/m 8,4 km/h (2 Bft)
23.01.2015 05:24 -1,7 C -2,8 C 93 % 1023,2 hPa 0,0 l/m 0 min 0 min 0 W/m 10,5 km/h (2 Bft)
23.01.2015 05:26 -1,7 C -2,8 C 93 % 1023,2 hPa 0,0 l/m 0 min 0 min 0 W/m 10,5 km/h (2 Bft)
23.01.2015 05:28 -1,7 C -2,8 C 93 % 1023,2 hPa 0,0 l/m 0 min 0 min 0 W/m 8,4 km/h (2 Bft)
23.01.2015 05:30 -1,8 C -2,8 C 93 % 1023,3 hPa 0,0 l/m 0 min 0 min 0 W/m 6,3 km/h (2 Bft)
23.01.2015 05:32 -1,8 C -2,8 C 93 % 1023,3 hPa 0,0 l/m 0 min 0 min 0 W/m 6,3 km/h (2 Bft)
23.01.2015 05:34 -1,8 C -2,8 C 93 % 1023,3 hPa 0,0 l/m 0 min 0 min 0 W/m 10,5 km/h (2 Bft)
23.01.2015 05:36 -1,8 C -3,3 C 93 % 1023,3 hPa 0,0 l/m 0 min 0 min 0 W/m 8,4 km/h (2 Bft)
23.01.2015 05:38 -1,8 C -3,3 C 93 % 1023,5 hPa 0,0 l/m 0 min 0 min 0 W/m 8,4 km/h (2 Bft)
23.01.2015 05:40 -1,8 C -3,3 C 93 % 1023,6 hPa 0,0 l/m 0 min 0 min 0 W/m 8,4 km/h (2 Bft)
23.01.2015 05:42 -1,8 C -3,3 C 93 % 1023,6 hPa 0,0 l/m 0 min 0 min 0 W/m 8,4 km/h (2 Bft)
23.01.2015 05:44 -1,9 C -3,3 C 93 % 1023,5 hPa 0,0 l/m 0 min 0 min 0 W/m 8,4 km/h (2 Bft)
23.01.2015 05:46 -1,9 C -3,3 C 93 % 1023,5 hPa 0,0 l/m 0 min 0 min 0 W/m 8,4 km/h (2 Bft)
23.01.2015 05:48 -1,9 C -3,3 C 93 % 1023,5 hPa 0,0 l/m 0 min 0 min 0 W/m 8,4 km/h (2 Bft)
23.01.2015 05:50 -1,9 C -3,3 C 93 % 1023,5 hPa 0,0 l/m 0 min 0 min 0 W/m 10,5 km/h (2 Bft)
23.01.2015 05:52 -1,9 C -3,3 C 93 % 1023,7 hPa 0,0 l/m 0 min 0 min 0 W/m 10,5 km/h (2 Bft)
23.01.2015 05:54 -1,9 C -3,3 C 93 % 1023,6 hPa 0,0 l/m 0 min 0 min 0 W/m 10,5 km/h (2 Bft)
23.01.2015 05:56 -1,9 C -3,3 C 93 % 1023,7 hPa 0,0 l/m 0 min 0 min 0 W/m 12,6 km/h (3 Bft)
23.01.2015 05:58 -1,9 C -3,3 C 93 % 1023,7 hPa 0,0 l/m 0 min 0 min 0 W/m 10,5 km/h (2 Bft)
23.01.2015 06:00 -2,0 C -3,3 C 93 % 1023,7 hPa 0,0 l/m 0 min 0 min 0 W/m 12,6 km/h (3 Bft)
23.01.2015 06:02 -2,0 C -3,3 C 93 % 1023,7 hPa 0,0 l/m 0 min 0 min 0 W/m 10,5 km/h (2 Bft)
23.01.2015 06:05 -2,0 C -2,8 C 93 % 1023,7 hPa 0,0 l/m 0 min 0 min 0 W/m 10,5 km/h (2 Bft)
23.01.2015 06:07 -2,0 C -2,8 C 93 % 1023,7 hPa 0,0 l/m 0 min 0 min 0 W/m 10,5 km/h (2 Bft)
23.01.2015 06:11 -2,0 C -2,8 C 93 % 1023,7 hPa 0,0 l/m 0 min 0 min 0 W/m 12,6 km/h (3 Bft)
23.01.2015 06:14 -2,0 C -2,8 C 93 % 1023,7 hPa 0,0 l/m 0 min 0 min 0 W/m 14,6 km/h (3 Bft)
23.01.2015 06:16 -2,0 C -2,8 C 93 % 1023,7 hPa 0,0 l/m 0 min 0 min 0 W/m 10,5 km/h (2 Bft)
23.01.2015 06:18 -1,9 C -2,8 C 93 % 1023,7 hPa 0,0 l/m 0 min 0 min 0 W/m 14,6 km/h (3 Bft)
23.01.2015 06:20 -1,9 C -2,8 C 93 % 1023,8 hPa 0,0 l/m 0 min 0 min 0 W/m 12,6 km/h (3 Bft)
23.01.2015 06:22 -1,9 C -2,8 C 93 % 1023,8 hPa 0,0 l/m 0 min 0 min 0 W/m 14,6 km/h (3 Bft)
23.01.2015 06:24 -1,9 C -2,8 C 93 % 1023,8 hPa 0,0 l/m 0 min 0 min 0 W/m 12,6 km/h (3 Bft)
23.01.2015 06:26 -1,9 C -2,8 C 93 % 1023,8 hPa 0,0 l/m 0 min 0 min 0 W/m 10,5 km/h (2 Bft)
23.01.2015 06:28 -1,8 C -2,8 C 94 % 1023,8 hPa 0,0 l/m 0 min 0 min 0 W/m 16,7 km/h (3 Bft)
23.01.2015 06:30 -1,8 C -2,8 C 94 % 1023,9 hPa 0,0 l/m 0 min 0 min 0 W/m 16,7 km/h (3 Bft)
23.01.2015 06:32 -1,8 C -2,8 C 94 % 1023,9 hPa 0,0 l/m 0 min 0 min 0 W/m 14,6 km/h (3 Bft)
23.01.2015 06:34 -1,8 C -2,8 C 94 % 1023,9 hPa 0,0 l/m 0 min 0 min 0 W/m 18,8 km/h (3 Bft)
23.01.2015 06:36 -1,8 C -2,2 C 94 % 1023,9 hPa 0,0 l/m 0 min 0 min 0 W/m 18,8 km/h (3 Bft)
23.01.2015 06:38 -1,8 C -2,2 C 94 % 1024,0 hPa 0,0 l/m 0 min 0 min 0 W/m 14,6 km/h (3 Bft)
23.01.2015 06:40 -1,8 C -2,2 C 94 % 1024,0 hPa 0,0 l/m 0 min 0 min 0 W/m 18,8 km/h (3 Bft)
23.01.2015 06:42 -1,7 C -2,2 C 94 % 1024,0 hPa 0,0 l/m 0 min 0 min 0 W/m 18,8 km/h (3 Bft)
23.01.2015 06:44 -1,7 C -2,2 C 94 % 1023,9 hPa 0,0 l/m 0 min 0 min 0 W/m 25,1 km/h (4 Bft)
23.01.2015 06:46 -1,7 C -2,2 C 94 % 1023,9 hPa 0,0 l/m 0 min 0 min 0 W/m 18,8 km/h (3 Bft)
23.01.2015 06:48 -1,7 C -2,2 C 94 % 1023,9 hPa 0,0 l/m 0 min 0 min 0 W/m 16,7 km/h (3 Bft)
23.01.2015 06:50 -1,7 C -2,2 C 94 % 1023,9 hPa 0,0 l/m 0 min 0 min 0 W/m 16,7 km/h (3 Bft)
23.01.2015 06:52 -1,7 C -2,2 C 94 % 1024,0 hPa 0,0 l/m 0 min 0 min 0 W/m 18,8 km/h (3 Bft)
23.01.2015 06:54 -1,7 C -2,2 C 94 % 1024,0 hPa 0,0 l/m 0 min 0 min 0 W/m 18,8 km/h (3 Bft)
23.01.2015 06:56 -1,7 C -2,2 C 94 % 1024,2 hPa 0,0 l/m 0 min 0 min 0 W/m 14,6 km/h (3 Bft)
23.01.2015 06:58 -1,7 C -2,2 C 94 % 1024,2 hPa 0,0 l/m 0 min 0 min 0 W/m 18,8 km/h (3 Bft)
23.01.2015 07:00 -1,7 C -2,2 C 94 % 1024,2 hPa 0,0 l/m 0 min 0 min 0 W/m 10,5 km/h (2 Bft)
23.01.2015 07:02 -1,7 C -2,2 C 94 % 1024,3 hPa 0,0 l/m 0 min 0 min 0 W/m 18,8 km/h (3 Bft)
23.01.2015 07:04 -1,7 C -2,2 C 94 % 1024,3 hPa 0,0 l/m 0 min 0 min 0 W/m 18,8 km/h (3 Bft)
23.01.2015 07:06 -1,7 C -2,2 C 94 % 1024,3 hPa 0,0 l/m 0 min 0 min 0 W/m 20,9 km/h (4 Bft)
23.01.2015 07:08 -1,7 C -2,2 C 94 % 1024,3 hPa 0,0 l/m 0 min 0 min 0 W/m 16,7 km/h (3 Bft)
23.01.2015 07:10 -1,6 C -2,2 C 94 % 1024,3 hPa 0,0 l/m 0 min 0 min 0 W/m 16,7 km/h (3 Bft)
23.01.2015 07:12 -1,6 C -2,2 C 94 % 1024,3 hPa 0,0 l/m 0 min 0 min 0 W/m 14,6 km/h (3 Bft)
23.01.2015 07:14 -1,6 C -2,2 C 94 % 1024,3 hPa 0,0 l/m 0 min 0 min 0 W/m 14,6 km/h (3 Bft)
23.01.2015 07:16 -1,6 C -2,2 C 94 % 1024,4 hPa 0,0 l/m 0 min 0 min 0 W/m 10,5 km/h (2 Bft)
23.01.2015 07:18 -1,6 C -2,2 C 94 % 1024,4 hPa 0,0 l/m 0 min 0 min 0 W/m 14,6 km/h (3 Bft)
23.01.2015 07:20 -1,6 C -2,2 C 94 % 1024,4 hPa 0,0 l/m 0 min 0 min 0 W/m 10,5 km/h (2 Bft)
23.01.2015 07:22 -1,6 C -2,2 C 94 % 1024,4 hPa 0,0 l/m 0 min 0 min 0 W/m 12,6 km/h (3 Bft)
23.01.2015 07:24 -1,6 C -2,2 C 94 % 1024,4 hPa 0,0 l/m 0 min 0 min 0 W/m 8,4 km/h (2 Bft)
23.01.2015 07:26 -1,6 C -2,2 C 94 % 1024,4 hPa 0,0 l/m 0 min 0 min 0 W/m 8,4 km/h (2 Bft)
23.01.2015 07:28 -1,6 C -2,2 C 94 % 1024,4 hPa 0,0 l/m 0 min 0 min 0 W/m 12,6 km/h (3 Bft)
23.01.2015 07:30 -1,6 C -2,2 C 94 % 1024,4 hPa 0,0 l/m 0 min 0 min 0 W/m 16,7 km/h (3 Bft)
23.01.2015 07:32 -1,6 C -2,2 C 94 % 1024,3 hPa 0,0 l/m 0 min 0 min 0 W/m 16,7 km/h (3 Bft)
23.01.2015 07:34 -1,6 C -2,2 C 94 % 1024,3 hPa 0,0 l/m 0 min 0 min 0 W/m 14,6 km/h (3 Bft)
23.01.2015 07:36 -1,6 C -2,2 C 94 % 1024,4 hPa 0,0 l/m 0 min 0 min 0 W/m 14,6 km/h (3 Bft)
23.01.2015 07:38 -1,6 C -2,2 C 94 % 1024,6 hPa 0,0 l/m 0 min 0 min 0 W/m 16,7 km/h (3 Bft)
23.01.2015 07:40 -1,6 C -2,2 C 94 % 1024,6 hPa 0,0 l/m 0 min 0 min 0 W/m 16,7 km/h (3 Bft)
23.01.2015 07:42 -1,6 C -2,2 C 94 % 1024,6 hPa 0,0 l/m 0 min 0 min 0 W/m 16,7 km/h (3 Bft)
23.01.2015 07:44 -1,6 C -2,2 C 94 % 1024,6 hPa 0,0 l/m 0 min 0 min 0 W/m 14,6 km/h (3 Bft)
23.01.2015 07:46 -1,6 C -2,2 C 94 % 1024,6 hPa 0,0 l/m 0 min 0 min 0 W/m 12,6 km/h (3 Bft)
23.01.2015 07:48 -1,6 C -2,2 C 94 % 1024,6 hPa 0,0 l/m 0 min 0 min 0 W/m 10,5 km/h (2 Bft)
23.01.2015 07:50 -1,6 C -2,2 C 94 % 1024,7 hPa 0,0 l/m 0 min 0 min 0 W/m 20,9 km/h (4 Bft)
23.01.2015 07:52 -1,6 C -2,2 C 94 % 1024,6 hPa 0,0 l/m 0 min 0 min 0 W/m 14,6 km/h (3 Bft)
23.01.2015 07:54 -1,6 C -2,2 C 94 % 1024,7 hPa 0,0 l/m 0 min 0 min 0 W/m 14,6 km/h (3 Bft)
23.01.2015 07:56 -1,6 C -2,2 C 94 % 1024,7 hPa 0,0 l/m 0 min 0 min 0 W/m 14,6 km/h (3 Bft)
23.01.2015 07:58 -1,6 C -2,2 C 94 % 1024,7 hPa 0,0 l/m 0 min 0 min 0 W/m 14,6 km/h (3 Bft)
23.01.2015 08:00 -1,6 C -2,2 C 94 % 1024,7 hPa 0,0 l/m 0 min 0 min 0 W/m 14,6 km/h (3 Bft)
23.01.2015 08:02 -1,6 C -2,2 C 94 % 1024,7 hPa 0,0 l/m 0 min 0 min 0 W/m 14,6 km/h (3 Bft)
23.01.2015 08:04 -1,6 C -2,2 C 94 % 1024,7 hPa 0,0 l/m 0 min 0 min 0 W/m 14,6 km/h (3 Bft)
23.01.2015 08:06 -1,6 C -2,2 C 94 % 1024,7 hPa 0,0 l/m 0 min 0 min 0 W/m 14,6 km/h (3 Bft)
23.01.2015 08:08 -1,5 C -2,2 C 94 % 1024,7 hPa 0,0 l/m 0 min 0 min 0 W/m 12,6 km/h (3 Bft)
23.01.2015 08:10 -1,5 C -2,2 C 94 % 1024,6 hPa 0,0 l/m 0 min 0 min 0 W/m 16,7 km/h (3 Bft)
23.01.2015 08:12 -1,5 C -2,2 C 94 % 1024,5 hPa 0,0 l/m 0 min 0 min 0 W/m 14,6 km/h (3 Bft)
23.01.2015 08:14 -1,5 C -2,2 C 94 % 1024,6 hPa 0,0 l/m 0 min 0 min 0 W/m 8,4 km/h (2 Bft)
23.01.2015 08:16 -1,5 C -2,2 C 94 % 1024,6 hPa 0,0 l/m 0 min 0 min 0 W/m 10,5 km/h (2 Bft)
23.01.2015 08:18 -1,5 C -2,2 C 94 % 1024,6 hPa 0,0 l/m 0 min 0 min 0 W/m 10,5 km/h (2 Bft)
23.01.2015 08:20 -1,5 C -2,2 C 94 % 1024,6 hPa 0,0 l/m 0 min 0 min 0 W/m 8,4 km/h (2 Bft)
23.01.2015 08:22 -1,5 C -2,2 C 94 % 1024,6 hPa 0,0 l/m 0 min 0 min 0 W/m 6,3 km/h (2 Bft)
23.01.2015 08:24 -1,5 C -2,2 C 94 % 1024,6 hPa 0,0 l/m 0 min 0 min 0 W/m 8,4 km/h (2 Bft)
23.01.2015 08:26 -1,5 C -2,2 C 94 % 1024,6 hPa 0,0 l/m 0 min 0 min 0 W/m 10,5 km/h (2 Bft)
23.01.2015 08:28 -1,5 C -2,2 C 94 % 1024,6 hPa 0,0 l/m 0 min 0 min 0 W/m 6,3 km/h (2 Bft)
23.01.2015 08:30 -1,5 C -2,2 C 94 % 1024,7 hPa 0,0 l/m 0 min 0 min 0 W/m 8,4 km/h (2 Bft)
23.01.2015 08:32 -1,4 C -2,2 C 94 % 1024,7 hPa 0,0 l/m 0 min 0 min 0 W/m 8,4 km/h (2 Bft)
23.01.2015 08:34 -1,4 C -2,2 C 94 % 1024,7 hPa 0,0 l/m 0 min 0 min 5 W/m 6,3 km/h (2 Bft)
23.01.2015 08:36 -1,4 C -2,2 C 94 % 1024,8 hPa 0,0 l/m 0 min 0 min 5 W/m 6,3 km/h (2 Bft)
23.01.2015 08:38 -1,4 C -2,2 C 94 % 1024,8 hPa 0,0 l/m 0 min 0 min 5 W/m 8,4 km/h (2 Bft)
23.01.2015 08:40 -1,4 C -2,2 C 94 % 1024,8 hPa 0,0 l/m 0 min 0 min 5 W/m 8,4 km/h (2 Bft)
23.01.2015 08:42 -1,4 C -2,2 C 94 % 1024,8 hPa 0,0 l/m 0 min 0 min 7 W/m 6,3 km/h (2 Bft)
23.01.2015 08:44 -1,4 C -2,2 C 94 % 1024,8 hPa 0,0 l/m 0 min 0 min 7 W/m 6,3 km/h (2 Bft)
23.01.2015 08:46 -1,4 C -2,2 C 94 % 1024,9 hPa 0,0 l/m 0 min 0 min 7 W/m 6,3 km/h (2 Bft)
23.01.2015 08:48 -1,4 C -2,2 C 94 % 1024,9 hPa 0,0 l/m 0 min 0 min 9 W/m 6,3 km/h (2 Bft)
23.01.2015 08:50 -1,4 C -2,2 C 94 % 1024,9 hPa 0,0 l/m 0 min 0 min 9 W/m 10,5 km/h (2 Bft)
23.01.2015 08:52 -1,4 C -2,2 C 94 % 1024,9 hPa 0,0 l/m 0 min 0 min 10 W/m 10,5 km/h (2 Bft)
23.01.2015 08:54 -1,3 C -1,7 C 94 % 1024,9 hPa 0,0 l/m 0 min 0 min 11 W/m 6,3 km/h (2 Bft)
23.01.2015 08:56 -1,3 C -1,7 C 94 % 1025,0 hPa 0,0 l/m 0 min 0 min 11 W/m 8,4 km/h (2 Bft)
23.01.2015 08:58 -1,3 C -1,7 C 94 % 1025,0 hPa 0,0 l/m 0 min 0 min 11 W/m 8,4 km/h (2 Bft)
23.01.2015 09:00 -1,3 C -1,7 C 94 % 1025,0 hPa 0,0 l/m 0 min 0 min 11 W/m 6,3 km/h (2 Bft)
23.01.2015 09:02 -1,3 C -1,7 C 94 % 1025,0 hPa 0,0 l/m 0 min 0 min 12 W/m 8,4 km/h (2 Bft)
23.01.2015 09:04 -1,3 C -1,7 C 94 % 1025,0 hPa 0,0 l/m 0 min 0 min 13 W/m 10,5 km/h (2 Bft)
23.01.2015 09:06 -1,3 C -1,7 C 94 % 1025,1 hPa 0,0 l/m 0 min 0 min 14 W/m 6,3 km/h (2 Bft)
23.01.2015 09:08 -1,3 C -1,7 C 94 % 1025,1 hPa 0,0 l/m 0 min 0 min 14 W/m 4,2 km/h (1 Bft)
23.01.2015 09:10 -1,3 C -1,7 C 94 % 1025,1 hPa 0,0 l/m 0 min 0 min 12 W/m 6,3 km/h (2 Bft)
23.01.2015 09:12 -1,3 C -1,7 C 94 % 1025,2 hPa 0,0 l/m 0 min 0 min 14 W/m 6,3 km/h (2 Bft)
23.01.2015 09:14 -1,2 C -1,7 C 94 % 1025,2 hPa 0,0 l/m 0 min 0 min 15 W/m 6,3 km/h (2 Bft)
23.01.2015 09:16 -1,2 C -1,7 C 94 % 1025,2 hPa 0,0 l/m 0 min 0 min 16 W/m 4,2 km/h (1 Bft)
23.01.2015 09:18 -1,2 C -1,7 C 94 % 1025,2 hPa 0,0 l/m 0 min 0 min 16 W/m 6,3 km/h (2 Bft)
23.01.2015 09:20 -1,2 C -1,7 C 94 % 1025,2 hPa 0,0 l/m 0 min 0 min 16 W/m 8,4 km/h (2 Bft)
23.01.2015 09:22 -1,2 C -1,7 C 94 % 1025,3 hPa 0,0 l/m 0 min 0 min 16 W/m 6,3 km/h (2 Bft)
23.01.2015 09:24 -1,2 C -1,7 C 94 % 1025,2 hPa 0,0 l/m 0 min 0 min 18 W/m 6,3 km/h (2 Bft)
23.01.2015 09:26 -1,2 C -1,7 C 94 % 1025,3 hPa 0,0 l/m 0 min 0 min 19 W/m 6,3 km/h (2 Bft)
23.01.2015 09:28 -1,2 C -1,7 C 94 % 1025,3 hPa 0,0 l/m 0 min 0 min 19 W/m 6,3 km/h (2 Bft)
23.01.2015 09:30 -1,2 C -1,7 C 94 % 1025,2 hPa 0,0 l/m 0 min 0 min 20 W/m 8,4 km/h (2 Bft)
23.01.2015 09:32 -1,2 C -1,7 C 94 % 1025,3 hPa 0,0 l/m 0 min 0 min 22 W/m 8,4 km/h (2 Bft)
23.01.2015 09:34 -1,2 C -1,7 C 94 % 1025,3 hPa 0,0 l/m 0 min 0 min 23 W/m 6,3 km/h (2 Bft)
23.01.2015 09:36 -1,2 C -1,7 C 94 % 1025,3 hPa 0,0 l/m 0 min 0 min 21 W/m 6,3 km/h (2 Bft)
23.01.2015 09:38 -1,1 C -1,7 C 94 % 1025,3 hPa 0,0 l/m 0 min 0 min 21 W/m 4,2 km/h (1 Bft)
23.01.2015 09:40 -1,1 C -1,7 C 94 % 1025,4 hPa 0,0 l/m 0 min 0 min 23 W/m 10,5 km/h (2 Bft)
23.01.2015 09:42 -1,1 C -1,7 C 94 % 1025,4 hPa 0,0 l/m 0 min 0 min 25 W/m 8,4 km/h (2 Bft)
23.01.2015 09:44 -1,1 C -1,7 C 94 % 1025,4 hPa 0,0 l/m 0 min 0 min 25 W/m 6,3 km/h (2 Bft)
23.01.2015 09:46 -1,1 C -1,7 C 94 % 1025,3 hPa 0,0 l/m 0 min 0 min 26 W/m 4,2 km/h (1 Bft)
23.01.2015 09:48 -1,1 C -1,7 C 94 % 1025,3 hPa 0,0 l/m 0 min 0 min 26 W/m 4,2 km/h (1 Bft)
23.01.2015 09:50 -1,1 C -1,7 C 94 % 1025,4 hPa 0,0 l/m 0 min 0 min 23 W/m 6,3 km/h (2 Bft)
23.01.2015 09:52 -1,1 C -1,7 C 94 % 1025,5 hPa 0,0 l/m 0 min 0 min 25 W/m 8,4 km/h (2 Bft)
23.01.2015 09:54 -1,1 C -1,7 C 94 % 1025,4 hPa 0,0 l/m 0 min 0 min 30 W/m 10,5 km/h (2 Bft)
23.01.2015 09:56 -1,1 C -1,7 C 94 % 1025,5 hPa 0,0 l/m 0 min 0 min 28 W/m 6,3 km/h (2 Bft)
23.01.2015 09:58 -1,1 C -1,7 C 94 % 1025,5 hPa 0,0 l/m 0 min 0 min 32 W/m 8,4 km/h (2 Bft)
23.01.2015 10:00 -1,1 C -1,7 C 94 % 1025,5 hPa 0,0 l/m 0 min 0 min 27 W/m 8,4 km/h (2 Bft)
23.01.2015 10:02 -1,1 C -1,7 C 94 % 1025,6 hPa 0,0 l/m 0 min 0 min 25 W/m 10,5 km/h (2 Bft)
23.01.2015 10:04 -1,1 C -1,7 C 94 % 1025,7 hPa 0,0 l/m 0 min 0 min 25 W/m 10,5 km/h (2 Bft)
23.01.2015 10:06 -1,1 C -1,7 C 94 % 1025,6 hPa 0,0 l/m 0 min 0 min 25 W/m 10,5 km/h (2 Bft)
23.01.2015 10:08 -1,1 C -1,7 C 94 % 1025,6 hPa 0,0 l/m 0 min 0 min 28 W/m 8,4 km/h (2 Bft)
23.01.2015 10:10 -1,1 C -1,7 C 94 % 1025,7 hPa 0,0 l/m 0 min 0 min 31 W/m 8,4 km/h (2 Bft)
23.01.2015 10:12 -1,0 C -1,7 C 94 % 1025,7 hPa 0,0 l/m 0 min 0 min 32 W/m 6,3 km/h (2 Bft)
23.01.2015 10:14 -1,0 C -1,7 C 94 % 1025,8 hPa 0,0 l/m 0 min 0 min 32 W/m 6,3 km/h (2 Bft)
23.01.2015 10:16 -1,0 C -1,7 C 94 % 1025,8 hPa 0,0 l/m 0 min 0 min 31 W/m 8,4 km/h (2 Bft)
23.01.2015 10:18 -1,0 C -1,7 C 94 % 1025,7 hPa 0,0 l/m 0 min 0 min 30 W/m 8,4 km/h (2 Bft)
23.01.2015 10:20 -1,0 C -1,7 C 94 % 1025,8 hPa 0,0 l/m 0 min 0 min 33 W/m 12,6 km/h (3 Bft)
23.01.2015 10:22 -1,0 C -1,7 C 94 % 1025,8 hPa 0,0 l/m 0 min 0 min 38 W/m 10,5 km/h (2 Bft)
23.01.2015 10:24 -1,0 C -1,7 C 94 % 1025,8 hPa 0,0 l/m 0 min 0 min 40 W/m 10,5 km/h (2 Bft)
23.01.2015 10:26 -1,0 C -1,7 C 94 % 1025,9 hPa 0,0 l/m 0 min 0 min 39 W/m 8,4 km/h (2 Bft)
23.01.2015 10:28 -0,9 C -1,7 C 93 % 1025,8 hPa 0,0 l/m 0 min 0 min 39 W/m 10,5 km/h (2 Bft)
23.01.2015 10:30 -0,9 C -1,7 C 93 % 1025,8 hPa 0,0 l/m 0 min 0 min 39 W/m 10,5 km/h (2 Bft)
23.01.2015 10:32 -0,9 C -1,7 C 93 % 1025,8 hPa 0,0 l/m 0 min 0 min 29 W/m 12,6 km/h (3 Bft)
23.01.2015 10:34 -0,9 C -1,7 C 93 % 1025,9 hPa 0,0 l/m 0 min 0 min 36 W/m 8,4 km/h (2 Bft)
23.01.2015 10:36 -0,9 C -1,7 C 94 % 1025,9 hPa 0,0 l/m 0 min 0 min 44 W/m 8,4 km/h (2 Bft)
23.01.2015 10:38 -0,9 C -1,7 C 94 % 1026,0 hPa 0,0 l/m 0 min 0 min 45 W/m 14,6 km/h (3 Bft)
23.01.2015 10:40 -0,9 C -1,7 C 94 % 1026,0 hPa 0,0 l/m 0 min 0 min 46 W/m 6,3 km/h (2 Bft)
23.01.2015 10:42 -0,9 C -1,1 C 93 % 1026,0 hPa 0,0 l/m 0 min 0 min 43 W/m 6,3 km/h (2 Bft)
23.01.2015 10:44 -0,9 C -1,1 C 93 % 1025,9 hPa 0,0 l/m 0 min 0 min 43 W/m 4,2 km/h (1 Bft)
23.01.2015 10:46 -0,9 C -1,1 C 93 % 1026,0 hPa 0,0 l/m 0 min 0 min 44 W/m 4,2 km/h (1 Bft)
23.01.2015 10:48 -0,9 C -1,1 C 93 % 1026,0 hPa 0,0 l/m 0 min 0 min 44 W/m 10,5 km/h (2 Bft)
23.01.2015 10:50 -0,9 C -1,1 C 93 % 1025,9 hPa 0,0 l/m 0 min 0 min 47 W/m 10,5 km/h (2 Bft)
23.01.2015 10:52 -0,9 C -1,1 C 93 % 1026,1 hPa 0,0 l/m 0 min 0 min 51 W/m 10,5 km/h (2 Bft)
23.01.2015 10:54 -0,9 C -1,1 C 93 % 1026,1 hPa 0,0 l/m 0 min 0 min 49 W/m 6,3 km/h (2 Bft)
23.01.2015 10:56 -0,8 C -1,1 C 93 % 1026,1 hPa 0,0 l/m 0 min 0 min 47 W/m 6,3 km/h (2 Bft)
23.01.2015 10:58 -0,8 C -1,1 C 93 % 1026,1 hPa 0,0 l/m 0 min 0 min 49 W/m 6,3 km/h (2 Bft)
23.01.2015 11:00 -0,8 C -1,1 C 93 % 1026,1 hPa 0,0 l/m 0 min 0 min 49 W/m 6,3 km/h (2 Bft)
23.01.2015 11:02 -0,8 C -1,1 C 93 % 1026,1 hPa 0,0 l/m 0 min 0 min 52 W/m 6,3 km/h (2 Bft)
23.01.2015 11:04 -0,8 C -1,1 C 93 % 1026,1 hPa 0,0 l/m 0 min 0 min 53 W/m 8,4 km/h (2 Bft)
23.01.2015 11:06 -0,8 C -1,1 C 93 % 1026,1 hPa 0,0 l/m 0 min 0 min 53 W/m 10,5 km/h (2 Bft)
23.01.2015 11:08 -0,8 C -1,1 C 93 % 1026,1 hPa 0,0 l/m 0 min 0 min 53 W/m 10,5 km/h (2 Bft)
23.01.2015 11:10 -0,7 C -1,1 C 93 % 1026,1 hPa 0,0 l/m 0 min 0 min 54 W/m 8,4 km/h (2 Bft)
23.01.2015 11:12 -0,7 C -1,1 C 93 % 1026,1 hPa 0,0 l/m 0 min 0 min 53 W/m 8,4 km/h (2 Bft)
23.01.2015 11:14 -0,7 C -1,1 C 93 % 1026,1 hPa 0,0 l/m 0 min 0 min 50 W/m 10,5 km/h (2 Bft)
23.01.2015 11:16 -0,7 C -1,1 C 93 % 1026,1 hPa 0,0 l/m 0 min 0 min 52 W/m 8,4 km/h (2 Bft)
23.01.2015 11:18 -0,7 C -1,1 C 93 % 1026,2 hPa 0,0 l/m 0 min 0 min 54 W/m 10,5 km/h (2 Bft)
23.01.2015 11:20 -0,7 C -1,1 C 93 % 1026,1 hPa 0,0 l/m 0 min 0 min 53 W/m 10,5 km/h (2 Bft)
23.01.2015 11:22 -0,7 C -1,1 C 93 % 1026,2 hPa 0,0 l/m 0 min 0 min 51 W/m 6,3 km/h (2 Bft)
23.01.2015 11:24 -0,7 C -1,1 C 93 % 1026,2 hPa 0,0 l/m 0 min 0 min 53 W/m 10,5 km/h (2 Bft)
23.01.2015 11:26 -0,7 C -1,1 C 93 % 1026,1 hPa 0,0 l/m 0 min 0 min 56 W/m 10,5 km/h (2 Bft)
23.01.2015 11:28 -0,7 C -1,1 C 93 % 1026,1 hPa 0,0 l/m 0 min 0 min 60 W/m 6,3 km/h (2 Bft)
23.01.2015 11:30 -0,7 C -1,1 C 93 % 1026,2 hPa 0,0 l/m 0 min 0 min 62 W/m 8,4 km/h (2 Bft)
23.01.2015 11:32 -0,7 C -1,1 C 93 % 1026,1 hPa 0,0 l/m 0 min 0 min 66 W/m 8,4 km/h (2 Bft)
23.01.2015 11:34 -0,6 C -0,6 C 93 % 1026,1 hPa 0,0 l/m 0 min 0 min 64 W/m 4,2 km/h (1 Bft)
23.01.2015 11:36 -0,6 C -0,6 C 93 % 1026,0 hPa 0,0 l/m 0 min 0 min 63 W/m 4,2 km/h (1 Bft)
23.01.2015 11:38 -0,6 C -0,6 C 92 % 1025,9 hPa 0,0 l/m 0 min 0 min 62 W/m 6,3 km/h (2 Bft)
23.01.2015 11:40 -0,6 C -1,1 C 92 % 1025,9 hPa 0,0 l/m 0 min 0 min 63 W/m 6,3 km/h (2 Bft)
23.01.2015 11:42 -0,6 C -1,1 C 93 % 1025,9 hPa 0,0 l/m 0 min 0 min 62 W/m 4,2 km/h (1 Bft)
23.01.2015 11:44 -0,6 C -0,6 C 93 % 1026,0 hPa 0,0 l/m 0 min 0 min 62 W/m 4,2 km/h (1 Bft)
23.01.2015 11:46 -0,6 C -1,1 C 93 % 1026,0 hPa 0,0 l/m 0 min 0 min 66 W/m 6,3 km/h (2 Bft)
23.01.2015 11:48 -0,6 C -0,6 C 93 % 1025,9 hPa 0,0 l/m 0 min 0 min 70 W/m 8,4 km/h (2 Bft)
23.01.2015 11:50 -0,6 C -0,6 C 92 % 1025,9 hPa 0,0 l/m 0 min 0 min 73 W/m 6,3 km/h (2 Bft)
23.01.2015 11:52 -0,6 C -0,6 C 92 % 1025,9 hPa 0,0 l/m 0 min 0 min 69 W/m 6,3 km/h (2 Bft)
23.01.2015 11:54 -0,5 C -0,6 C 92 % 1025,9 hPa 0,0 l/m 0 min 0 min 64 W/m 6,3 km/h (2 Bft)
23.01.2015 11:56 -0,5 C -0,6 C 92 % 1025,9 hPa 0,0 l/m 0 min 0 min 62 W/m 6,3 km/h (2 Bft)
23.01.2015 11:58 -0,5 C -0,6 C 92 % 1025,9 hPa 0,0 l/m 0 min 0 min 67 W/m 4,2 km/h (1 Bft)
23.01.2015 12:00 -0,5 C -0,6 C 92 % 1025,9 hPa 0,0 l/m 0 min 0 min 70 W/m 6,3 km/h (2 Bft)
23.01.2015 12:02 -0,5 C -0,6 C 92 % 1025,8 hPa 0,0 l/m 0 min 0 min 71 W/m 8,4 km/h (2 Bft)
23.01.2015 12:05 -0,5 C -0,6 C 92 % 1025,9 hPa 0,0 l/m 0 min 0 min 72 W/m 4,2 km/h (1 Bft)
23.01.2015 12:06 -0,5 C -0,6 C 92 % 1026,0 hPa 0,0 l/m 0 min 0 min 70 W/m 4,2 km/h (1 Bft)
23.01.2015 12:10 -0,4 C -0,6 C 92 % 1026,0 hPa 0,0 l/m 0 min 0 min 69 W/m 4,2 km/h (1 Bft)
23.01.2015 12:15 -0,4 C -0,6 C 92 % 1025,9 hPa 0,0 l/m 0 min 0 min 68 W/m 6,3 km/h (2 Bft)
23.01.2015 12:20 -0,4 C -0,6 C 92 % 1025,9 hPa 0,0 l/m 0 min 0 min 81 W/m 4,2 km/h (1 Bft)
23.01.2015 12:25 -0,3 C -0,6 C 92 % 1025,9 hPa 0,0 l/m 0 min 0 min 79 W/m 6,3 km/h (2 Bft)
23.01.2015 12:30 -0,3 C -0,6 C 92 % 1025,9 hPa 0,0 l/m 0 min 0 min 74 W/m 8,4 km/h (2 Bft)
23.01.2015 12:35 -0,3 C -0,6 C 92 % 1025,8 hPa 0,0 l/m 0 min 0 min 70 W/m 10,5 km/h (2 Bft)
23.01.2015 12:40 -0,2 C 0,0 C 92 % 1025,9 hPa 0,0 l/m 0 min 0 min 70 W/m 6,3 km/h (2 Bft)
23.01.2015 12:45 -0,2 C -0,6 C 92 % 1025,9 hPa 0,0 l/m 0 min 0 min 65 W/m 6,3 km/h (2 Bft)
23.01.2015 12:50 -0,2 C 0,0 C 92 % 1025,9 hPa 0,0 l/m 0 min 0 min 70 W/m 6,3 km/h (2 Bft)
23.01.2015 12:52 -0,2 C 0,0 C 92 % 1025,9 hPa 0,0 l/m 0 min 0 min 70 W/m 6,3 km/h (2 Bft)
23.01.2015 12:54 -0,2 C 0,0 C 92 % 1025,9 hPa 0,0 l/m 0 min 0 min 71 W/m 6,3 km/h (2 Bft)
23.01.2015 12:56 -0,2 C -0,6 C 91 % 1025,8 hPa 0,0 l/m 0 min 0 min 73 W/m 4,2 km/h (1 Bft)
23.01.2015 12:58 -0,1 C -0,6 C 91 % 1025,8 hPa 0,0 l/m 0 min 0 min 73 W/m 4,2 km/h (1 Bft)
23.01.2015 13:00 -0,1 C -0,6 C 91 % 1025,8 hPa 0,0 l/m 0 min 0 min 70 W/m 4,2 km/h (1 Bft)
23.01.2015 13:02 -0,1 C -0,6 C 91 % 1025,7 hPa 0,0 l/m 0 min 0 min 70 W/m 6,3 km/h (2 Bft)
23.01.2015 13:04 -0,1 C -0,6 C 91 % 1025,8 hPa 0,0 l/m 0 min 0 min 70 W/m 6,3 km/h (2 Bft)
23.01.2015 13:06 -0,1 C -0,6 C 91 % 1025,7 hPa 0,0 l/m 0 min 0 min 69 W/m 6,3 km/h (2 Bft)
23.01.2015 13:08 -0,1 C -0,6 C 91 % 1025,6 hPa 0,0 l/m 0 min 0 min 69 W/m 6,3 km/h (2 Bft)
23.01.2015 13:10 -0,2 C -0,6 C 91 % 1025,6 hPa 0,0 l/m 0 min 0 min 69 W/m 6,3 km/h (2 Bft)
23.01.2015 13:12 -0,2 C -0,6 C 91 % 1025,6 hPa 0,0 l/m 0 min 0 min 68 W/m 4,2 km/h (1 Bft)
23.01.2015 13:14 -0,2 C -0,6 C 91 % 1025,6 hPa 0,0 l/m 0 min 0 min 67 W/m 4,2 km/h (1 Bft)
23.01.2015 13:16 -0,2 C -0,6 C 91 % 1025,6 hPa 0,0 l/m 0 min 0 min 68 W/m 6,3 km/h (2 Bft)
23.01.2015 13:18 -0,2 C -0,6 C 91 % 1025,7 hPa 0,0 l/m 0 min 0 min 70 W/m 8,4 km/h (2 Bft)
23.01.2015 13:20 -0,2 C -0,6 C 91 % 1025,7 hPa 0,0 l/m 0 min 0 min 72 W/m 10,5 km/h (2 Bft)
23.01.2015 13:22 -0,2 C -0,6 C 91 % 1025,6 hPa 0,0 l/m 0 min 0 min 69 W/m 6,3 km/h (2 Bft)
23.01.2015 13:24 -0,2 C -0,6 C 91 % 1025,5 hPa 0,0 l/m 0 min 0 min 67 W/m 10,5 km/h (2 Bft)
23.01.2015 13:26 -0,2 C -0,6 C 90 % 1025,5 hPa 0,0 l/m 0 min 0 min 67 W/m 8,4 km/h (2 Bft)
23.01.2015 13:28 -0,2 C -0,6 C 90 % 1025,5 hPa 0,0 l/m 0 min 0 min 66 W/m 8,4 km/h (2 Bft)
23.01.2015 13:30 -0,3 C -0,6 C 90 % 1025,5 hPa 0,0 l/m 0 min 0 min 68 W/m 4,2 km/h (1 Bft)
23.01.2015 13:32 -0,3 C -0,6 C 90 % 1025,4 hPa 0,0 l/m 0 min 0 min 71 W/m 6,3 km/h (2 Bft)
23.01.2015 13:34 -0,3 C -0,6 C 90 % 1025,4 hPa 0,0 l/m 0 min 0 min 71 W/m 2,1 km/h (1 Bft)
23.01.2015 13:36 -0,3 C -0,6 C 90 % 1025,4 hPa 0,0 l/m 0 min 0 min 68 W/m 6,3 km/h (2 Bft)
23.01.2015 13:38 -0,3 C -0,6 C 90 % 1025,4 hPa 0,0 l/m 0 min 0 min 67 W/m 4,2 km/h (1 Bft)
23.01.2015 13:40 -0,3 C -0,6 C 90 % 1025,4 hPa 0,0 l/m 0 min 0 min 69 W/m 2,1 km/h (1 Bft)
23.01.2015 13:42 -0,3 C -0,6 C 90 % 1025,4 hPa 0,0 l/m 0 min 0 min 70 W/m 4,2 km/h (1 Bft)
23.01.2015 13:44 -0,3 C -0,6 C 90 % 1025,4 hPa 0,0 l/m 0 min 0 min 72 W/m 4,2 km/h (1 Bft)
23.01.2015 13:46 -0,3 C -0,6 C 90 % 1025,4 hPa 0,0 l/m 0 min 0 min 70 W/m 4,2 km/h (1 Bft)
23.01.2015 13:48 -0,3 C -0,6 C 90 % 1025,3 hPa 0,0 l/m 0 min 0 min 69 W/m 4,2 km/h (1 Bft)
23.01.2015 13:50 -0,3 C -0,6 C 90 % 1025,3 hPa 0,0 l/m 0 min 0 min 67 W/m 6,3 km/h (2 Bft)
23.01.2015 13:52 -0,3 C -0,6 C 90 % 1025,4 hPa 0,0 l/m 0 min 0 min 63 W/m 6,3 km/h (2 Bft)
23.01.2015 13:54 -0,3 C -0,6 C 90 % 1025,3 hPa 0,0 l/m 0 min 0 min 64 W/m 6,3 km/h (2 Bft)
23.01.2015 13:56 -0,2 C -0,6 C 90 % 1025,3 hPa 0,0 l/m 0 min 0 min 65 W/m 4,2 km/h (1 Bft)
23.01.2015 13:58 -0,2 C -0,6 C 90 % 1025,3 hPa 0,0 l/m 0 min 0 min 63 W/m 4,2 km/h (1 Bft)
23.01.2015 14:00 -0,2 C -0,6 C 90 % 1025,3 hPa 0,0 l/m 0 min 0 min 63 W/m 4,2 km/h (1 Bft)
23.01.2015 14:02 -0,2 C -0,6 C 90 % 1025,2 hPa 0,0 l/m 0 min 0 min 62 W/m 6,3 km/h (2 Bft)
23.01.2015 14:04 -0,2 C -0,6 C 90 % 1025,2 hPa 0,0 l/m 0 min 0 min 63 W/m 6,3 km/h (2 Bft)
23.01.2015 14:06 -0,2 C -0,6 C 90 % 1025,1 hPa 0,0 l/m 0 min 0 min 62 W/m 4,2 km/h (1 Bft)
23.01.2015 14:08 -0,2 C 0,0 C 90 % 1025,2 hPa 0,0 l/m 0 min 0 min 59 W/m 8,4 km/h (2 Bft)
23.01.2015 14:10 -0,2 C -0,6 C 90 % 1025,2 hPa 0,0 l/m 0 min 0 min 58 W/m 6,3 km/h (2 Bft)
23.01.2015 14:12 -0,2 C -0,6 C 90 % 1025,2 hPa 0,0 l/m 0 min 0 min 60 W/m 6,3 km/h (2 Bft)
23.01.2015 14:14 -0,1 C -0,6 C 90 % 1025,3 hPa 0,0 l/m 0 min 0 min 60 W/m 6,3 km/h (2 Bft)
23.01.2015 14:16 -0,1 C -0,6 C 90 % 1025,3 hPa 0,0 l/m 0 min 0 min 60 W/m 4,2 km/h (1 Bft)
23.01.2015 14:18 -0,1 C -0,6 C 90 % 1025,2 hPa 0,0 l/m 0 min 0 min 62 W/m 6,3 km/h (2 Bft)
23.01.2015 14:20 -0,1 C -0,6 C 90 % 1025,3 hPa 0,0 l/m 0 min 0 min 63 W/m 4,2 km/h (1 Bft)
23.01.2015 14:22 -0,1 C -0,6 C 90 % 1025,3 hPa 0,0 l/m 0 min 0 min 61 W/m 4,2 km/h (1 Bft)
23.01.2015 14:24 -0,1 C -0,6 C 90 % 1025,3 hPa 0,0 l/m 0 min 0 min 60 W/m 6,3 km/h (2 Bft)
23.01.2015 14:26 -0,1 C -0,6 C 90 % 1025,3 hPa 0,0 l/m 0 min 0 min 60 W/m 6,3 km/h (2 Bft)
23.01.2015 14:28 -0,1 C -0,6 C 90 % 1025,3 hPa 0,0 l/m 0 min 0 min 58 W/m 6,3 km/h (2 Bft)
23.01.2015 14:30 -0,1 C -0,6 C 90 % 1025,4 hPa 0,0 l/m 0 min 0 min 61 W/m 6,3 km/h (2 Bft)
23.01.2015 14:32 -0,1 C -0,6 C 90 % 1025,3 hPa 0,0 l/m 0 min 0 min 64 W/m 6,3 km/h (2 Bft)
23.01.2015 14:34 -0,1 C -0,6 C 90 % 1025,3 hPa 0,0 l/m 0 min 0 min 62 W/m 4,2 km/h (1 Bft)
23.01.2015 14:36 -0,1 C -0,6 C 90 % 1025,3 hPa 0,0 l/m 0 min 0 min 61 W/m 4,2 km/h (1 Bft)
23.01.2015 14:38 -0,1 C -0,6 C 90 % 1025,3 hPa 0,0 l/m 0 min 0 min 60 W/m 6,3 km/h (2 Bft)
23.01.2015 14:40 -0,1 C -0,6 C 90 % 1025,2 hPa 0,0 l/m 0 min 0 min 57 W/m 4,2 km/h (1 Bft)
23.01.2015 14:42 -0,1 C -0,6 C 90 % 1025,3 hPa 0,0 l/m 0 min 0 min 56 W/m 6,3 km/h (2 Bft)
23.01.2015 14:44 -0,1 C -0,6 C 90 % 1025,3 hPa 0,0 l/m 0 min 0 min 54 W/m 4,2 km/h (1 Bft)
23.01.2015 14:46 -0,1 C -0,6 C 90 % 1025,2 hPa 0,0 l/m 0 min 0 min 52 W/m 4,2 km/h (1 Bft)
23.01.2015 14:48 -0,1 C -0,6 C 89 % 1025,2 hPa 0,0 l/m 0 min 0 min 52 W/m 4,2 km/h (1 Bft)
23.01.2015 14:50 -0,1 C -0,6 C 89 % 1025,2 hPa 0,0 l/m 0 min 0 min 54 W/m 6,3 km/h (2 Bft)
23.01.2015 14:52 -0,1 C -0,6 C 89 % 1025,2 hPa 0,0 l/m 0 min 0 min 55 W/m 4,2 km/h (1 Bft)
23.01.2015 14:54 -0,1 C -0,6 C 90 % 1025,2 hPa 0,0 l/m 0 min 0 min 52 W/m 4,2 km/h (1 Bft)
23.01.2015 14:56 -0,1 C -0,6 C 89 % 1025,2 hPa 0,0 l/m 0 min 0 min 52 W/m 6,3 km/h (2 Bft)
23.01.2015 14:58 -0,1 C -0,6 C 89 % 1025,2 hPa 0,0 l/m 0 min 0 min 54 W/m 6,3 km/h (2 Bft)
23.01.2015 15:00 -0,1 C -0,6 C 90 % 1025,1 hPa 0,0 l/m 0 min 0 min 54 W/m 4,2 km/h (1 Bft)
23.01.2015 15:02 -0,1 C -0,6 C 90 % 1025,2 hPa 0,0 l/m 0 min 0 min 51 W/m 4,2 km/h (1 Bft)
23.01.2015 15:04 -0,1 C -0,6 C 90 % 1025,2 hPa 0,0 l/m 0 min 0 min 49 W/m 4,2 km/h (1 Bft)
23.01.2015 15:06 -0,1 C -0,6 C 90 % 1025,2 hPa 0,0 l/m 0 min 0 min 46 W/m 4,2 km/h (1 Bft)
23.01.2015 15:08 -0,1 C -0,6 C 90 % 1025,2 hPa 0,0 l/m 0 min 0 min 44 W/m 6,3 km/h (2 Bft)
23.01.2015 15:10 -0,1 C -0,6 C 90 % 1025,3 hPa 0,0 l/m 0 min 0 min 47 W/m 6,3 km/h (2 Bft)
23.01.2015 15:12 -0,1 C -0,6 C 90 % 1025,2 hPa 0,0 l/m 0 min 0 min 48 W/m 4,2 km/h (1 Bft)
23.01.2015 15:14 -0,1 C -0,6 C 90 % 1025,2 hPa 0,0 l/m 0 min 0 min 45 W/m 2,1 km/h (1 Bft)
23.01.2015 15:16 -0,1 C -0,6 C 90 % 1025,3 hPa 0,0 l/m 0 min 0 min 40 W/m 2,1 km/h (1 Bft)
23.01.2015 15:18 -0,1 C -0,6 C 90 % 1025,3 hPa 0,0 l/m 0 min 0 min 38 W/m 4,2 km/h (1 Bft)
23.01.2015 15:20 -0,1 C -0,6 C 90 % 1025,4 hPa 0,0 l/m 0 min 0 min 39 W/m 2,1 km/h (1 Bft)
23.01.2015 15:22 -0,1 C -0,6 C 90 % 1025,5 hPa 0,0 l/m 0 min 0 min 36 W/m 4,2 km/h (1 Bft)
23.01.2015 15:24 -0,1 C -0,6 C 90 % 1025,4 hPa 0,0 l/m 0 min 0 min 33 W/m 4,2 km/h (1 Bft)
23.01.2015 15:26 -0,1 C -0,6 C 90 % 1025,4 hPa 0,0 l/m 0 min 0 min 32 W/m 4,2 km/h (1 Bft)
23.01.2015 15:28 -0,1 C -0,6 C 90 % 1025,4 hPa 0,0 l/m 0 min 0 min 33 W/m 4,2 km/h (1 Bft)
23.01.2015 15:30 -0,1 C -0,6 C 89 % 1025,4 hPa 0,0 l/m 0 min 0 min 32 W/m 4,2 km/h (1 Bft)
23.01.2015 15:32 -0,1 C -0,6 C 89 % 1025,4 hPa 0,0 l/m 0 min 0 min 30 W/m 4,2 km/h (1 Bft)
23.01.2015 15:34 -0,1 C -0,6 C 89 % 1025,5 hPa 0,0 l/m 0 min 0 min 28 W/m 2,1 km/h (1 Bft)
23.01.2015 15:36 -0,1 C -0,6 C 89 % 1025,6 hPa 0,0 l/m 0 min 0 min 26 W/m 6,3 km/h (2 Bft)
23.01.2015 15:38 -0,1 C -0,6 C 89 % 1025,7 hPa 0,0 l/m 0 min 0 min 24 W/m 6,3 km/h (2 Bft)
23.01.2015 15:40 -0,1 C -0,6 C 89 % 1025,8 hPa 0,0 l/m 0 min 0 min 23 W/m 6,3 km/h (2 Bft)
23.01.2015 15:42 -0,1 C -1,1 C 89 % 1025,7 hPa 0,0 l/m 0 min 0 min 23 W/m 4,2 km/h (1 Bft)
23.01.2015 15:44 -0,1 C -1,1 C 89 % 1025,7 hPa 0,0 l/m 0 min 0 min 21 W/m 2,1 km/h (1 Bft)
23.01.2015 15:46 -0,1 C -1,1 C 89 % 1025,7 hPa 0,0 l/m 0 min 0 min 21 W/m 4,2 km/h (1 Bft)
23.01.2015 15:48 -0,1 C -1,1 C 89 % 1025,7 hPa 0,0 l/m 0 min 0 min 21 W/m 4,2 km/h (1 Bft)
23.01.2015 15:50 -0,1 C -1,1 C 89 % 1025,7 hPa 0,0 l/m 0 min 0 min 20 W/m 4,2 km/h (1 Bft)
23.01.2015 15:52 -0,1 C -1,1 C 89 % 1025,6 hPa 0,0 l/m 0 min 0 min 21 W/m 4,2 km/h (1 Bft)
23.01.2015 15:54 -0,2 C -1,1 C 89 % 1025,6 hPa 0,0 l/m 0 min 0 min 21 W/m 4,2 km/h (1 Bft)
23.01.2015 15:56 -0,2 C -0,6 C 89 % 1025,7 hPa 0,0 l/m 0 min 0 min 21 W/m 6,3 km/h (2 Bft)
23.01.2015 15:58 -0,2 C -0,6 C 89 % 1025,8 hPa 0,0 l/m 0 min 0 min 21 W/m 4,2 km/h (1 Bft)
23.01.2015 16:00 -0,2 C -0,6 C 89 % 1025,8 hPa 0,0 l/m 0 min 0 min 20 W/m 6,3 km/h (2 Bft)
23.01.2015 16:02 -0,2 C -0,6 C 89 % 1025,8 hPa 0,0 l/m 0 min 0 min 19 W/m 4,2 km/h (1 Bft)
23.01.2015 16:04 -0,2 C -0,6 C 89 % 1025,8 hPa 0,0 l/m 0 min 0 min 19 W/m 6,3 km/h (2 Bft)
23.01.2015 16:06 -0,2 C -1,1 C 89 % 1025,8 hPa 0,0 l/m 0 min 0 min 19 W/m 8,4 km/h (2 Bft)
23.01.2015 16:08 -0,2 C -1,1 C 89 % 1025,8 hPa 0,0 l/m 0 min 0 min 18 W/m 8,4 km/h (2 Bft)
23.01.2015 16:10 -0,2 C -1,1 C 89 % 1025,8 hPa 0,0 l/m 0 min 0 min 18 W/m 6,3 km/h (2 Bft)
23.01.2015 16:12 -0,2 C -1,1 C 89 % 1025,8 hPa 0,0 l/m 0 min 0 min 18 W/m 4,2 km/h (1 Bft)
23.01.2015 16:14 -0,2 C -1,1 C 89 % 1025,8 hPa 0,0 l/m 0 min 0 min 18 W/m 8,4 km/h (2 Bft)
23.01.2015 16:16 -0,2 C -1,1 C 89 % 1025,7 hPa 0,0 l/m 0 min 0 min 18 W/m 10,5 km/h (2 Bft)
23.01.2015 16:18 -0,2 C -1,1 C 89 % 1025,7 hPa 0,0 l/m 0 min 0 min 17 W/m 8,4 km/h (2 Bft)
23.01.2015 16:20 -0,3 C -1,1 C 89 % 1025,7 hPa 0,0 l/m 0 min 0 min 16 W/m 6,3 km/h (2 Bft)
23.01.2015 16:22 -0,3 C -1,1 C 89 % 1025,8 hPa 0,0 l/m 0 min 0 min 16 W/m 4,2 km/h (1 Bft)
23.01.2015 16:24 -0,3 C -1,1 C 89 % 1025,8 hPa 0,0 l/m 0 min 0 min 14 W/m 6,3 km/h (2 Bft)
23.01.2015 16:26 -0,3 C -1,1 C 89 % 1025,8 hPa 0,0 l/m 0 min 0 min 14 W/m 6,3 km/h (2 Bft)
23.01.2015 16:28 -0,3 C -1,1 C 89 % 1025,8 hPa 0,0 l/m 0 min 0 min 12 W/m 4,2 km/h (1 Bft)
23.01.2015 16:30 -0,3 C -1,1 C 89 % 1025,8 hPa 0,0 l/m 0 min 0 min 12 W/m 6,3 km/h (2 Bft)
23.01.2015 16:32 -0,3 C -1,1 C 89 % 1025,8 hPa 0,0 l/m 0 min 0 min 11 W/m 6,3 km/h (2 Bft)
23.01.2015 16:34 -0,3 C -1,1 C 89 % 1025,8 hPa 0,0 l/m 0 min 0 min 11 W/m 4,2 km/h (1 Bft)
23.01.2015 16:36 -0,3 C -1,1 C 89 % 1025,7 hPa 0,0 l/m 0 min 0 min 10 W/m 6,3 km/h (2 Bft)
23.01.2015 16:38 -0,3 C -1,1 C 89 % 1025,8 hPa 0,0 l/m 0 min 0 min 9 W/m 4,2 km/h (1 Bft)
23.01.2015 16:40 -0,4 C -1,1 C 89 % 1025,9 hPa 0,0 l/m 0 min 0 min 9 W/m 4,2 km/h (1 Bft)
23.01.2015 16:42 -0,4 C -1,1 C 89 % 1025,9 hPa 0,0 l/m 0 min 0 min 7 W/m 4,2 km/h (1 Bft)
23.01.2015 16:44 -0,4 C -1,1 C 89 % 1025,9 hPa 0,0 l/m 0 min 0 min 5 W/m 2,1 km/h (1 Bft)
23.01.2015 16:46 -0,4 C -1,1 C 89 % 1025,9 hPa 0,0 l/m 0 min 0 min 7 W/m 2,1 km/h (1 Bft)
23.01.2015 16:48 -0,4 C -1,7 C 89 % 1025,9 hPa 0,0 l/m 0 min 0 min 5 W/m 2,1 km/h (1 Bft)
23.01.2015 16:50 -0,4 C -1,1 C 89 % 1026,0 hPa 0,0 l/m 0 min 0 min 5 W/m 4,2 km/h (1 Bft)
23.01.2015 16:52 -0,4 C -1,7 C 89 % 1026,0 hPa 0,0 l/m 0 min 0 min 5 W/m 2,1 km/h (1 Bft)
23.01.2015 16:54 -0,5 C -1,7 C 89 % 1025,9 hPa 0,0 l/m 0 min 0 min 5 W/m 2,1 km/h (1 Bft)
23.01.2015 16:56 -0,5 C -1,7 C 89 % 1025,9 hPa 0,0 l/m 0 min 0 min 4 W/m 4,2 km/h (1 Bft)
23.01.2015 16:58 -0,5 C -1,7 C 89 % 1025,8 hPa 0,0 l/m 0 min 0 min 0 W/m 6,3 km/h (2 Bft)
23.01.2015 17:00 -0,5 C -1,7 C 89 % 1025,9 hPa 0,0 l/m 0 min 0 min 0 W/m 8,4 km/h (2 Bft)
23.01.2015 17:02 -0,5 C -1,7 C 89 % 1025,9 hPa 0,0 l/m 0 min 0 min 0 W/m 4,2 km/h (1 Bft)
23.01.2015 17:04 -0,6 C -1,7 C 89 % 1025,9 hPa 0,0 l/m 0 min 0 min 0 W/m 6,3 km/h (2 Bft)
23.01.2015 17:06 -0,6 C -1,7 C 89 % 1025,8 hPa 0,0 l/m 0 min 0 min 0 W/m 6,3 km/h (2 Bft)
23.01.2015 17:08 -0,6 C -1,7 C 89 % 1025,8 hPa 0,0 l/m 0 min 0 min 0 W/m 6,3 km/h (2 Bft)
23.01.2015 17:10 -0,6 C -1,7 C 89 % 1025,9 hPa 0,0 l/m 0 min 0 min 0 W/m 6,3 km/h (2 Bft)
23.01.2015 17:12 -0,6 C -1,7 C 89 % 1025,9 hPa 0,0 l/m 0 min 0 min 0 W/m 4,2 km/h (1 Bft)
23.01.2015 17:14 -0,6 C -1,7 C 89 % 1026,0 hPa 0,0 l/m 0 min 0 min 0 W/m 2,1 km/h (1 Bft)
23.01.2015 17:16 -0,6 C -1,7 C 89 % 1026,0 hPa 0,0 l/m 0 min 0 min 0 W/m 2,1 km/h (1 Bft)
23.01.2015 17:18 -0,6 C -1,7 C 89 % 1026,1 hPa 0,0 l/m 0 min 0 min 0 W/m 4,2 km/h (1 Bft)
23.01.2015 17:20 -0,6 C -1,7 C 89 % 1026,1 hPa 0,0 l/m 0 min 0 min 0 W/m 4,2 km/h (1 Bft)
23.01.2015 17:22 -0,6 C -1,7 C 89 % 1026,2 hPa 0,0 l/m 0 min 0 min 0 W/m 4,2 km/h (1 Bft)
23.01.2015 17:24 -0,6 C -1,7 C 89 % 1026,2 hPa 0,0 l/m 0 min 0 min 0 W/m 6,3 km/h (2 Bft)
23.01.2015 17:26 -0,7 C -1,7 C 89 % 1026,2 hPa 0,0 l/m 0 min 0 min 0 W/m 6,3 km/h (2 Bft)
23.01.2015 17:28 -0,7 C -1,7 C 89 % 1026,2 hPa 0,0 l/m 0 min 0 min 0 W/m 6,3 km/h (2 Bft)
23.01.2015 17:30 -0,7 C -1,7 C 89 % 1026,2 hPa 0,0 l/m 0 min 0 min 0 W/m 4,2 km/h (1 Bft)
23.01.2015 17:32 -0,7 C -1,7 C 89 % 1026,2 hPa 0,0 l/m 0 min 0 min 0 W/m 6,3 km/h (2 Bft)
23.01.2015 17:34 -0,7 C -1,7 C 89 % 1026,2 hPa 0,0 l/m 0 min 0 min 0 W/m 4,2 km/h (1 Bft)
23.01.2015 17:36 -0,7 C -1,7 C 89 % 1026,2 hPa 0,0 l/m 0 min 0 min 0 W/m 6,3 km/h (2 Bft)
23.01.2015 17:38 -0,7 C -1,7 C 89 % 1026,1 hPa 0,0 l/m 0 min 0 min 0 W/m 6,3 km/h (2 Bft)
23.01.2015 17:40 -0,7 C -1,7 C 89 % 1026,1 hPa 0,0 l/m 0 min 0 min 0 W/m 2,1 km/h (1 Bft)
23.01.2015 17:42 -0,7 C -1,7 C 89 % 1026,1 hPa 0,0 l/m 0 min 0 min 0 W/m 2,1 km/h (1 Bft)
23.01.2015 17:44 -0,7 C -1,7 C 89 % 1026,1 hPa 0,0 l/m 0 min 0 min 0 W/m 2,1 km/h (1 Bft)
23.01.2015 17:46 -0,7 C -1,7 C 89 % 1026,1 hPa 0,0 l/m 0 min 0 min 0 W/m 2,1 km/h (1 Bft)
23.01.2015 17:48 -0,8 C -1,7 C 89 % 1026,1 hPa 0,0 l/m 0 min 0 min 0 W/m 2,1 km/h (1 Bft)
23.01.2015 17:50 -0,8 C -1,7 C 89 % 1026,2 hPa 0,0 l/m 0 min 0 min 0 W/m 2,1 km/h (1 Bft)
23.01.2015 17:52 -0,8 C -1,7 C 89 % 1026,2 hPa 0,0 l/m 0 min 0 min 0 W/m 2,1 km/h (1 Bft)
23.01.2015 17:54 -0,8 C -1,7 C 89 % 1026,1 hPa 0,0 l/m 0 min 0 min 0 W/m 2,1 km/h (1 Bft)
23.01.2015 17:56 -0,8 C -1,7 C 89 % 1026,1 hPa 0,0 l/m 0 min 0 min 0 W/m 2,1 km/h (1 Bft)
23.01.2015 17:58 -0,8 C -1,7 C 89 % 1026,2 hPa 0,0 l/m 0 min 0 min 0 W/m 4,2 km/h (1 Bft)
23.01.2015 18:00 -0,8 C -1,7 C 90 % 1026,2 hPa 0,0 l/m 0 min 0 min 0 W/m 2,1 km/h (1 Bft)
23.01.2015 18:02 -0,8 C -1,7 C 90 % 1026,3 hPa 0,0 l/m 0 min 0 min 0 W/m 4,2 km/h (1 Bft)
23.01.2015 18:05 -0,8 C -1,7 C 90 % 1026,2 hPa 0,0 l/m 0 min 0 min 0 W/m 4,2 km/h (1 Bft)
23.01.2015 18:07 -0,8 C -1,7 C 90 % 1026,3 hPa 0,0 l/m 0 min 0 min 0 W/m 10,5 km/h (2 Bft)
23.01.2015 18:11 -0,8 C -1,7 C 90 % 1026,3 hPa 0,0 l/m 0 min 0 min 0 W/m 10,5 km/h (2 Bft)
23.01.2015 18:14 -0,8 C -1,7 C 90 % 1026,2 hPa 0,0 l/m 0 min 0 min 0 W/m 10,5 km/h (2 Bft)
23.01.2015 18:16 -0,8 C -1,7 C 90 % 1026,2 hPa 0,0 l/m 0 min 0 min 0 W/m 4,2 km/h (1 Bft)
23.01.2015 18:18 -0,8 C -1,7 C 90 % 1026,2 hPa 0,0 l/m 0 min 0 min 0 W/m 4,2 km/h (1 Bft)
23.01.2015 18:20 -0,8 C -1,7 C 90 % 1026,2 hPa 0,0 l/m 0 min 0 min 0 W/m 4,2 km/h (1 Bft)
23.01.2015 18:22 -0,8 C -1,7 C 90 % 1026,1 hPa 0,0 l/m 0 min 0 min 0 W/m 6,3 km/h (2 Bft)
23.01.2015 18:24 -0,8 C -1,7 C 90 % 1026,1 hPa 0,0 l/m 0 min 0 min 0 W/m 4,2 km/h (1 Bft)
23.01.2015 18:26 -0,8 C -1,7 C 90 % 1026,1 hPa 0,0 l/m 0 min 0 min 0 W/m 2,1 km/h (1 Bft)
23.01.2015 18:28 -0,8 C -1,7 C 90 % 1026,1 hPa 0,0 l/m 0 min 0 min 0 W/m 2,1 km/h (1 Bft)
23.01.2015 18:30 -0,8 C -1,7 C 90 % 1026,1 hPa 0,0 l/m 0 min 0 min 0 W/m 2,1 km/h (1 Bft)
23.01.2015 18:32 -0,8 C -1,7 C 90 % 1026,1 hPa 0,0 l/m 0 min 0 min 0 W/m 0,0 km/h (0 Bft)
23.01.2015 18:34 -0,8 C -1,7 C 90 % 1026,2 hPa 0,0 l/m 0 min 0 min 0 W/m 2,1 km/h (1 Bft)
23.01.2015 18:36 -0,8 C -1,7 C 90 % 1026,2 hPa 0,0 l/m 0 min 0 min 0 W/m 2,1 km/h (1 Bft)
23.01.2015 18:38 -0,8 C -1,7 C 90 % 1026,2 hPa 0,0 l/m 0 min 0 min 0 W/m 2,1 km/h (1 Bft)
23.01.2015 18:40 -0,8 C -1,7 C 90 % 1026,2 hPa 0,0 l/m 0 min 0 min 0 W/m 4,2 km/h (1 Bft)
23.01.2015 18:42 -0,8 C -1,7 C 90 % 1026,2 hPa 0,0 l/m 0 min 0 min 0 W/m 2,1 km/h (1 Bft)
23.01.2015 18:44 -0,8 C -1,7 C 90 % 1026,2 hPa 0,0 l/m 0 min 0 min 0 W/m 2,1 km/h (1 Bft)
23.01.2015 18:46 -0,8 C -1,7 C 90 % 1026,2 hPa 0,0 l/m 0 min 0 min 0 W/m 4,2 km/h (1 Bft)
23.01.2015 18:48 -0,8 C -1,7 C 90 % 1026,2 hPa 0,0 l/m 0 min 0 min 0 W/m 4,2 km/h (1 Bft)
23.01.2015 18:50 -0,8 C -1,7 C 90 % 1026,2 hPa 0,0 l/m 0 min 0 min 0 W/m 2,1 km/h (1 Bft)
23.01.2015 18:52 -0,8 C -1,7 C 90 % 1026,2 hPa 0,0 l/m 0 min 0 min 0 W/m 4,2 km/h (1 Bft)
23.01.2015 18:54 -0,8 C -1,7 C 90 % 1026,2 hPa 0,0 l/m 0 min 0 min 0 W/m 4,2 km/h (1 Bft)
23.01.2015 18:56 -0,8 C -1,7 C 90 % 1026,2 hPa 0,0 l/m 0 min 0 min 0 W/m 2,1 km/h (1 Bft)
23.01.2015 18:58 -0,8 C -1,7 C 90 % 1026,1 hPa 0,0 l/m 0 min 0 min 0 W/m 2,1 km/h (1 Bft)
23.01.2015 19:00 -0,8 C -1,7 C 90 % 1026,2 hPa 0,0 l/m 0 min 0 min 0 W/m 4,2 km/h (1 Bft)
23.01.2015 19:02 -0,8 C -1,7 C 90 % 1026,1 hPa 0,0 l/m 0 min 0 min 0 W/m 2,1 km/h (1 Bft)
23.01.2015 19:04 -0,8 C -1,7 C 90 % 1026,1 hPa 0,0 l/m 0 min 0 min 0 W/m 6,3 km/h (2 Bft)
23.01.2015 19:06 -0,7 C -1,1 C 90 % 1026,2 hPa 0,0 l/m 0 min 0 min 0 W/m 6,3 km/h (2 Bft)
23.01.2015 19:08 -0,7 C -1,7 C 90 % 1026,1 hPa 0,0 l/m 0 min 0 min 0 W/m 8,4 km/h (2 Bft)
23.01.2015 19:10 -0,7 C -1,1 C 90 % 1026,1 hPa 0,0 l/m 0 min 0 min 0 W/m 8,4 km/h (2 Bft)
23.01.2015 19:12 -0,7 C -1,7 C 90 % 1026,1 hPa 0,0 l/m 0 min 0 min 0 W/m 8,4 km/h (2 Bft)
23.01.2015 19:14 -0,7 C -1,7 C 90 % 1026,2 hPa 0,0 l/m 0 min 0 min 0 W/m 8,4 km/h (2 Bft)
23.01.2015 19:16 -0,7 C -1,7 C 90 % 1026,1 hPa 0,0 l/m 0 min 0 min 0 W/m 10,5 km/h (2 Bft)
23.01.2015 19:18 -0,7 C -1,1 C 90 % 1026,1 hPa 0,0 l/m 0 min 0 min 0 W/m 12,6 km/h (3 Bft)
23.01.2015 19:20 -0,7 C -1,1 C 90 % 1026,1 hPa 0,0 l/m 0 min 0 min 0 W/m 10,5 km/h (2 Bft)
23.01.2015 19:22 -0,7 C -1,7 C 90 % 1026,1 hPa 0,0 l/m 0 min 0 min 0 W/m 10,5 km/h (2 Bft)
23.01.2015 19:24 -0,7 C -1,7 C 90 % 1026,0 hPa 0,0 l/m 0 min 0 min 0 W/m 10,5 km/h (2 Bft)
23.01.2015 19:26 -0,7 C -1,7 C 90 % 1026,0 hPa 0,0 l/m 0 min 0 min 0 W/m 12,6 km/h (3 Bft)
23.01.2015 19:28 -0,7 C -1,7 C 90 % 1026,0 hPa 0,0 l/m 0 min 0 min 0 W/m 14,6 km/h (3 Bft)
23.01.2015 19:30 -0,7 C -1,7 C 90 % 1025,9 hPa 0,0 l/m 0 min 0 min 0 W/m 10,5 km/h (2 Bft)
23.01.2015 19:32 -0,7 C -1,7 C 91 % 1025,9 hPa 0,0 l/m 0 min 0 min 0 W/m 8,4 km/h (2 Bft)
23.01.2015 19:34 -0,7 C -1,7 C 91 % 1026,1 hPa 0,0 l/m 0 min 0 min 0 W/m 8,4 km/h (2 Bft)
23.01.2015 19:36 -0,7 C -1,7 C 91 % 1025,9 hPa 0,0 l/m 0 min 0 min 0 W/m 8,4 km/h (2 Bft)
23.01.2015 19:38 -0,7 C -1,7 C 91 % 1026,1 hPa 0,0 l/m 0 min 0 min 0 W/m 8,4 km/h (2 Bft)
23.01.2015 19:40 -0,7 C -1,7 C 91 % 1025,9 hPa 0,0 l/m 0 min 0 min 0 W/m 8,4 km/h (2 Bft)
23.01.2015 19:42 -0,7 C -1,7 C 91 % 1026,0 hPa 0,0 l/m 0 min 0 min 0 W/m 10,5 km/h (2 Bft)
23.01.2015 19:44 -0,7 C -1,7 C 91 % 1026,0 hPa 0,0 l/m 0 min 0 min 0 W/m 12,6 km/h (3 Bft)
23.01.2015 19:46 -0,7 C -1,7 C 91 % 1025,9 hPa 0,0 l/m 0 min 0 min 0 W/m 12,6 km/h (3 Bft)
23.01.2015 19:48 -0,7 C -1,7 C 91 % 1025,9 hPa 0,0 l/m 0 min 0 min 0 W/m 8,4 km/h (2 Bft)
23.01.2015 19:50 -0,7 C -1,7 C 91 % 1025,9 hPa 0,0 l/m 0 min 0 min 0 W/m 8,4 km/h (2 Bft)
23.01.2015 19:52 -0,7 C -1,7 C 91 % 1025,9 hPa 0,0 l/m 0 min 0 min 0 W/m 6,3 km/h (2 Bft)
23.01.2015 19:54 -0,7 C -1,7 C 91 % 1025,8 hPa 0,0 l/m 0 min 0 min 0 W/m 6,3 km/h (2 Bft)
23.01.2015 19:56 -0,7 C -1,7 C 91 % 1025,8 hPa 0,0 l/m 0 min 0 min 0 W/m 10,5 km/h (2 Bft)
23.01.2015 19:58 -0,7 C -1,7 C 91 % 1025,8 hPa 0,0 l/m 0 min 0 min 0 W/m 10,5 km/h (2 Bft)
23.01.2015 20:00 -0,8 C -1,7 C 91 % 1025,8 hPa 0,0 l/m 0 min 0 min 0 W/m 8,4 km/h (2 Bft)
23.01.2015 20:02 -0,7 C -1,7 C 91 % 1025,9 hPa 0,0 l/m 0 min 0 min 0 W/m 8,4 km/h (2 Bft)
23.01.2015 20:04 -0,7 C -1,7 C 91 % 1025,9 hPa 0,0 l/m 0 min 0 min 0 W/m 6,3 km/h (2 Bft)
23.01.2015 20:06 -0,8 C -1,7 C 91 % 1025,8 hPa 0,0 l/m 0 min 0 min 0 W/m 12,6 km/h (3 Bft)
23.01.2015 20:08 -0,7 C -1,7 C 91 % 1025,8 hPa 0,0 l/m 0 min 0 min 0 W/m 12,6 km/h (3 Bft)
23.01.2015 20:10 -0,8 C -1,7 C 91 % 1025,8 hPa 0,0 l/m 0 min 0 min 0 W/m 6,3 km/h (2 Bft)
23.01.2015 20:12 -0,8 C -1,7 C 91 % 1025,8 hPa 0,0 l/m 0 min 0 min 0 W/m 8,4 km/h (2 Bft)
23.01.2015 20:14 -0,8 C -1,7 C 91 % 1025,8 hPa 0,0 l/m 0 min 0 min 0 W/m 10,5 km/h (2 Bft)
23.01.2015 20:16 -0,8 C -1,7 C 91 % 1025,8 hPa 0,0 l/m 0 min 0 min 0 W/m 8,4 km/h (2 Bft)
23.01.2015 20:18 -0,8 C -1,7 C 91 % 1025,7 hPa 0,0 l/m 0 min 0 min 0 W/m 14,6 km/h (3 Bft)
23.01.2015 20:20 -0,8 C -1,7 C 91 % 1025,8 hPa 0,0 l/m 0 min 0 min 0 W/m 14,6 km/h (3 Bft)
23.01.2015 20:22 -0,8 C -1,7 C 91 % 1025,8 hPa 0,0 l/m 0 min 0 min 0 W/m 14,6 km/h (3 Bft)
23.01.2015 20:24 -0,8 C -1,7 C 91 % 1025,7 hPa 0,0 l/m 0 min 0 min 0 W/m 12,6 km/h (3 Bft)
23.01.2015 20:26 -0,8 C -1,7 C 91 % 1025,8 hPa 0,0 l/m 0 min 0 min 0 W/m 16,7 km/h (3 Bft)
23.01.2015 20:28 -0,8 C -1,7 C 91 % 1025,8 hPa 0,0 l/m 0 min 0 min 0 W/m 18,8 km/h (3 Bft)
23.01.2015 20:30 -0,8 C -1,7 C 91 % 1025,8 hPa 0,0 l/m 0 min 0 min 0 W/m 12,6 km/h (3 Bft)
23.01.2015 20:32 -0,8 C -1,7 C 91 % 1025,8 hPa 0,0 l/m 0 min 0 min 0 W/m 14,6 km/h (3 Bft)
23.01.2015 20:34 -0,8 C -1,7 C 91 % 1025,8 hPa 0,0 l/m 0 min 0 min 0 W/m 8,4 km/h (2 Bft)
23.01.2015 20:36 -0,8 C -1,7 C 91 % 1025,7 hPa 0,0 l/m 0 min 0 min 0 W/m 8,4 km/h (2 Bft)
23.01.2015 20:38 -0,8 C -1,7 C 91 % 1025,7 hPa 0,0 l/m 0 min 0 min 0 W/m 14,6 km/h (3 Bft)
23.01.2015 20:40 -0,8 C -1,7 C 91 % 1025,6 hPa 0,0 l/m 0 min 0 min 0 W/m 12,6 km/h (3 Bft)
23.01.2015 20:42 -0,8 C -1,7 C 91 % 1025,7 hPa 0,0 l/m 0 min 0 min 0 W/m 12,6 km/h (3 Bft)
23.01.2015 20:44 -0,8 C -1,7 C 91 % 1025,7 hPa 0,0 l/m 0 min 0 min 0 W/m 6,3 km/h (2 Bft)
23.01.2015 20:46 -0,9 C -1,7 C 91 % 1025,7 hPa 0,0 l/m 0 min 0 min 0 W/m 14,6 km/h (3 Bft)
23.01.2015 20:48 -0,9 C -1,7 C 92 % 1025,7 hPa 0,0 l/m 0 min 0 min 0 W/m 12,6 km/h (3 Bft)
23.01.2015 20:50 -0,9 C -1,7 C 92 % 1025,7 hPa 0,0 l/m 0 min 0 min 0 W/m 8,4 km/h (2 Bft)
23.01.2015 20:52 -0,9 C -1,7 C 92 % 1025,7 hPa 0,0 l/m 0 min 0 min 0 W/m 12,6 km/h (3 Bft)
23.01.2015 20:54 -0,9 C -1,7 C 92 % 1025,7 hPa 0,0 l/m 0 min 0 min 0 W/m 14,6 km/h (3 Bft)
23.01.2015 20:56 -0,9 C -1,7 C 92 % 1025,7 hPa 0,0 l/m 0 min 0 min 0 W/m 12,6 km/h (3 Bft)
23.01.2015 20:58 -0,9 C -1,7 C 92 % 1025,6 hPa 0,0 l/m 0 min 0 min 0 W/m 8,4 km/h (2 Bft)
23.01.2015 21:00 -0,9 C -1,7 C 92 % 1025,5 hPa 0,0 l/m 0 min 0 min 0 W/m 4,2 km/h (1 Bft)
23.01.2015 21:02 -0,9 C -1,7 C 92 % 1025,5 hPa 0,0 l/m 0 min 0 min 0 W/m 10,5 km/h (2 Bft)
23.01.2015 21:04 -0,9 C -1,7 C 92 % 1025,5 hPa 0,0 l/m 0 min 0 min 0 W/m 12,6 km/h (3 Bft)
23.01.2015 21:06 -0,9 C -1,7 C 92 % 1025,4 hPa 0,0 l/m 0 min 0 min 0 W/m 8,4 km/h (2 Bft)
23.01.2015 21:08 -0,9 C -1,7 C 92 % 1025,5 hPa 0,0 l/m 0 min 0 min 0 W/m 6,3 km/h (2 Bft)
23.01.2015 21:10 -0,9 C -1,7 C 92 % 1025,5 hPa 0,0 l/m 0 min 0 min 0 W/m 8,4 km/h (2 Bft)
23.01.2015 21:12 -0,9 C -1,7 C 92 % 1025,5 hPa 0,0 l/m 0 min 0 min 0 W/m 10,5 km/h (2 Bft)
23.01.2015 21:14 -0,9 C -1,7 C 92 % 1025,5 hPa 0,0 l/m 0 min 0 min 0 W/m 8,4 km/h (2 Bft)
23.01.2015 21:16 -0,9 C -1,7 C 92 % 1025,4 hPa 0,0 l/m 0 min 0 min 0 W/m 12,6 km/h (3 Bft)
23.01.2015 21:18 -0,9 C -1,7 C 92 % 1025,4 hPa 0,0 l/m 0 min 0 min 0 W/m 18,8 km/h (3 Bft)
23.01.2015 21:20 -0,9 C -1,7 C 92 % 1025,2 hPa 0,0 l/m 0 min 0 min 0 W/m 16,7 km/h (3 Bft)
23.01.2015 21:22 -0,9 C -1,7 C 92 % 1025,3 hPa 0,0 l/m 0 min 0 min 0 W/m 16,7 km/h (3 Bft)
23.01.2015 21:24 -0,9 C -1,7 C 92 % 1025,2 hPa 0,0 l/m 0 min 0 min 0 W/m 14,6 km/h (3 Bft)
23.01.2015 21:26 -0,9 C -1,7 C 92 % 1025,3 hPa 0,0 l/m 0 min 0 min 0 W/m 14,6 km/h (3 Bft)
23.01.2015 21:28 -0,9 C -1,7 C 92 % 1025,3 hPa 0,0 l/m 0 min 0 min 0 W/m 14,6 km/h (3 Bft)
23.01.2015 21:30 -0,9 C -1,7 C 92 % 1025,2 hPa 0,0 l/m 0 min 0 min 0 W/m 16,7 km/h (3 Bft)
23.01.2015 21:32 -0,9 C -1,7 C 92 % 1025,2 hPa 0,0 l/m 0 min 0 min 0 W/m 18,8 km/h (3 Bft)
23.01.2015 21:34 -0,9 C -1,7 C 92 % 1025,2 hPa 0,0 l/m 0 min 0 min 0 W/m 18,8 km/h (3 Bft)
23.01.2015 21:36 -0,9 C -1,7 C 92 % 1025,3 hPa 0,0 l/m 0 min 0 min 0 W/m 10,5 km/h (2 Bft)
23.01.2015 21:38 -0,9 C -1,7 C 92 % 1025,3 hPa 0,0 l/m 0 min 0 min 0 W/m 12,6 km/h (3 Bft)
23.01.2015 21:40 -0,9 C -1,7 C 92 % 1025,3 hPa 0,0 l/m 0 min 0 min 0 W/m 16,7 km/h (3 Bft)
23.01.2015 21:42 -0,9 C -1,7 C 92 % 1025,4 hPa 0,0 l/m 0 min 0 min 0 W/m 12,6 km/h (3 Bft)
23.01.2015 21:44 -0,9 C -1,7 C 92 % 1025,4 hPa 0,0 l/m 0 min 0 min 0 W/m 10,5 km/h (2 Bft)
23.01.2015 21:46 -0,9 C -1,7 C 92 % 1025,3 hPa 0,0 l/m 0 min 0 min 0 W/m 12,6 km/h (3 Bft)
23.01.2015 21:48 -0,9 C -1,7 C 92 % 1025,3 hPa 0,0 l/m 0 min 0 min 0 W/m 14,6 km/h (3 Bft)
23.01.2015 21:50 -0,9 C -1,7 C 92 % 1025,2 hPa 0,0 l/m 0 min 0 min 0 W/m 12,6 km/h (3 Bft)
23.01.2015 21:52 -0,9 C -1,7 C 92 % 1025,1 hPa 0,0 l/m 0 min 0 min 0 W/m 12,6 km/h (3 Bft)
23.01.2015 21:54 -0,9 C -1,7 C 92 % 1025,2 hPa 0,0 l/m 0 min 0 min 0 W/m 8,4 km/h (2 Bft)
23.01.2015 21:56 -0,9 C -1,7 C 92 % 1025,1 hPa 0,0 l/m 0 min 0 min 0 W/m 6,3 km/h (2 Bft)
23.01.2015 21:58 -0,9 C -1,7 C 92 % 1025,1 hPa 0,0 l/m 0 min 0 min 0 W/m 6,3 km/h (2 Bft)
23.01.2015 22:00 -0,9 C -1,7 C 92 % 1025,1 hPa 0,0 l/m 0 min 0 min 0 W/m 12,6 km/h (3 Bft)
23.01.2015 22:02 -0,9 C -1,7 C 92 % 1025,0 hPa 0,0 l/m 0 min 0 min 0 W/m 12,6 km/h (3 Bft)
23.01.2015 22:04 -0,9 C -1,7 C 92 % 1025,0 hPa 0,0 l/m 0 min 0 min 0 W/m 16,7 km/h (3 Bft)
23.01.2015 22:06 -0,9 C -1,7 C 92 % 1025,0 hPa 0,0 l/m 0 min 0 min 0 W/m 12,6 km/h (3 Bft)
23.01.2015 22:08 -0,9 C -1,7 C 93 % 1025,0 hPa 0,0 l/m 0 min 0 min 0 W/m 14,6 km/h (3 Bft)
23.01.2015 22:10 -0,9 C -1,7 C 93 % 1025,1 hPa 0,0 l/m 0 min 0 min 0 W/m 14,6 km/h (3 Bft)
23.01.2015 22:12 -0,9 C -1,7 C 93 % 1025,1 hPa 0,0 l/m 0 min 0 min 0 W/m 14,6 km/h (3 Bft)
23.01.2015 22:14 -0,9 C -1,7 C 93 % 1025,1 hPa 0,0 l/m 0 min 0 min 0 W/m 8,4 km/h (2 Bft)
23.01.2015 22:16 -0,9 C -1,7 C 93 % 1025,2 hPa 0,0 l/m 0 min 0 min 0 W/m 6,3 km/h (2 Bft)
23.01.2015 22:18 -0,9 C -1,7 C 93 % 1025,2 hPa 0,0 l/m 0 min 0 min 0 W/m 12,6 km/h (3 Bft)
23.01.2015 22:20 -0,9 C -1,7 C 92 % 1025,1 hPa 0,0 l/m 0 min 0 min 0 W/m 14,6 km/h (3 Bft)
23.01.2015 22:22 -0,8 C -1,7 C 93 % 1025,1 hPa 0,0 l/m 0 min 0 min 0 W/m 14,6 km/h (3 Bft)
23.01.2015 22:24 -0,8 C -1,7 C 93 % 1025,1 hPa 0,0 l/m 0 min 0 min 0 W/m 12,6 km/h (3 Bft)
23.01.2015 22:26 -0,8 C -1,7 C 93 % 1025,0 hPa 0,0 l/m 0 min 0 min 0 W/m 12,6 km/h (3 Bft)
23.01.2015 22:28 -0,8 C -1,7 C 93 % 1025,0 hPa 0,0 l/m 0 min 0 min 0 W/m 12,6 km/h (3 Bft)
23.01.2015 22:30 -0,8 C -1,7 C 93 % 1024,9 hPa 0,0 l/m 0 min 0 min 0 W/m 10,5 km/h (2 Bft)
23.01.2015 22:32 -0,8 C -1,7 C 93 % 1024,9 hPa 0,0 l/m 0 min 0 min 0 W/m 12,6 km/h (3 Bft)
23.01.2015 22:34 -0,8 C -1,7 C 93 % 1024,9 hPa 0,0 l/m 0 min 0 min 0 W/m 8,4 km/h (2 Bft)
23.01.2015 22:36 -0,8 C -1,7 C 93 % 1024,9 hPa 0,0 l/m 0 min 0 min 0 W/m 6,3 km/h (2 Bft)
23.01.2015 22:38 -0,8 C -1,7 C 93 % 1025,0 hPa 0,0 l/m 0 min 0 min 0 W/m 10,5 km/h (2 Bft)
23.01.2015 22:40 -0,8 C -1,7 C 93 % 1025,0 hPa 0,0 l/m 0 min 0 min 0 W/m 8,4 km/h (2 Bft)
23.01.2015 22:42 -0,8 C -1,7 C 93 % 1024,9 hPa 0,0 l/m 0 min 0 min 0 W/m 8,4 km/h (2 Bft)
23.01.2015 22:44 -0,8 C -1,7 C 93 % 1024,9 hPa 0,0 l/m 0 min 0 min 0 W/m 10,5 km/h (2 Bft)
23.01.2015 22:46 -0,8 C -1,1 C 93 % 1024,8 hPa 0,0 l/m 0 min 0 min 0 W/m 10,5 km/h (2 Bft)
23.01.2015 22:48 -0,8 C -1,1 C 93 % 1024,8 hPa 0,0 l/m 0 min 0 min 0 W/m 8,4 km/h (2 Bft)
23.01.2015 22:50 -0,8 C -1,1 C 93 % 1024,9 hPa 0,0 l/m 0 min 0 min 0 W/m 8,4 km/h (2 Bft)
23.01.2015 22:52 -0,8 C -1,1 C 93 % 1024,9 hPa 0,0 l/m 0 min 0 min 0 W/m 6,3 km/h (2 Bft)
23.01.2015 22:54 -0,8 C -1,1 C 93 % 1024,9 hPa 0,0 l/m 0 min 0 min 0 W/m 12,6 km/h (3 Bft)
23.01.2015 22:56 -0,7 C -1,1 C 93 % 1024,9 hPa 0,0 l/m 0 min 0 min 0 W/m 18,8 km/h (3 Bft)
23.01.2015 22:58 -0,7 C -1,1 C 93 % 1024,8 hPa 0,0 l/m 0 min 0 min 0 W/m 14,6 km/h (3 Bft)
23.01.2015 23:00 -0,7 C -1,1 C 93 % 1024,8 hPa 0,0 l/m 0 min 0 min 0 W/m 10,5 km/h (2 Bft)
23.01.2015 23:02 -0,7 C -1,1 C 93 % 1024,8 hPa 0,0 l/m 0 min 0 min 0 W/m 10,5 km/h (2 Bft)
23.01.2015 23:04 -0,7 C -1,1 C 93 % 1024,8 hPa 0,0 l/m 0 min 0 min 0 W/m 12,6 km/h (3 Bft)
23.01.2015 23:06 -0,7 C -1,1 C 93 % 1024,7 hPa 0,0 l/m 0 min 0 min 0 W/m 14,6 km/h (3 Bft)
23.01.2015 23:08 -0,6 C -1,1 C 93 % 1024,7 hPa 0,0 l/m 0 min 0 min 0 W/m 12,6 km/h (3 Bft)
23.01.2015 23:10 -0,6 C -1,1 C 93 % 1024,6 hPa 0,0 l/m 0 min 0 min 0 W/m 14,6 km/h (3 Bft)
23.01.2015 23:12 -0,6 C -1,1 C 93 % 1024,5 hPa 0,0 l/m 0 min 0 min 0 W/m 8,4 km/h (2 Bft)
23.01.2015 23:14 -0,6 C -1,1 C 93 % 1024,5 hPa 0,0 l/m 0 min 0 min 0 W/m 8,4 km/h (2 Bft)
23.01.2015 23:16 -0,6 C -1,1 C 93 % 1024,4 hPa 0,0 l/m 0 min 0 min 0 W/m 12,6 km/h (3 Bft)
23.01.2015 23:18 -0,6 C -1,1 C 93 % 1024,5 hPa 0,0 l/m 0 min 0 min 0 W/m 12,6 km/h (3 Bft)
23.01.2015 23:20 -0,6 C -1,1 C 93 % 1024,4 hPa 0,0 l/m 0 min 0 min 0 W/m 8,4 km/h (2 Bft)
23.01.2015 23:22 -0,6 C -1,1 C 93 % 1024,4 hPa 0,0 l/m 0 min 0 min 0 W/m 12,6 km/h (3 Bft)
23.01.2015 23:24 -0,6 C -1,1 C 93 % 1024,4 hPa 0,0 l/m 0 min 0 min 0 W/m 18,8 km/h (3 Bft)
23.01.2015 23:26 -0,5 C -1,1 C 93 % 1024,5 hPa 0,0 l/m 0 min 0 min 0 W/m 10,5 km/h (2 Bft)
23.01.2015 23:28 -0,5 C -1,1 C 93 % 1024,5 hPa 0,0 l/m 0 min 0 min 0 W/m 10,5 km/h (2 Bft)
23.01.2015 23:30 -0,5 C -1,1 C 93 % 1024,5 hPa 0,0 l/m 0 min 0 min 0 W/m 12,6 km/h (3 Bft)
23.01.2015 23:32 -0,4 C -1,1 C 93 % 1024,5 hPa 0,0 l/m 0 min 0 min 0 W/m 10,5 km/h (2 Bft)
23.01.2015 23:34 -0,4 C -1,1 C 93 % 1024,5 hPa 0,0 l/m 0 min 0 min 0 W/m 14,6 km/h (3 Bft)
23.01.2015 23:36 -0,4 C -1,1 C 93 % 1024,5 hPa 0,0 l/m 0 min 0 min 0 W/m 20,9 km/h (4 Bft)
23.01.2015 23:38 -0,4 C -1,1 C 93 % 1024,4 hPa 0,0 l/m 0 min 0 min 0 W/m 14,6 km/h (3 Bft)
23.01.2015 23:40 -0,4 C -1,1 C 93 % 1024,3 hPa 0,0 l/m 0 min 0 min 0 W/m 14,6 km/h (3 Bft)
23.01.2015 23:42 -0,4 C -1,1 C 93 % 1024,3 hPa 0,0 l/m 0 min 0 min 0 W/m 10,5 km/h (2 Bft)
23.01.2015 23:44 -0,4 C -1,1 C 93 % 1024,4 hPa 0,0 l/m 0 min 0 min 0 W/m 14,6 km/h (3 Bft)
23.01.2015 23:46 -0,4 C -1,1 C 93 % 1024,3 hPa 0,0 l/m 0 min 0 min 0 W/m 12,6 km/h (3 Bft)
23.01.2015 23:48 -0,4 C -1,1 C 93 % 1024,3 hPa 0,0 l/m 0 min 0 min 0 W/m 10,5 km/h (2 Bft)
23.01.2015 23:50 -0,4 C -1,1 C 93 % 1024,3 hPa 0,0 l/m 0 min 0 min 0 W/m 14,6 km/h (3 Bft)
23.01.2015 23:52 -0,4 C -1,1 C 93 % 1024,3 hPa 0,0 l/m 0 min 0 min 0 W/m 10,5 km/h (2 Bft)
23.01.2015 23:54 -0,3 C -1,1 C 93 % 1024,2 hPa 0,0 l/m 0 min 0 min 0 W/m 12,6 km/h (3 Bft)
23.01.2015 23:56 -0,3 C -1,1 C 93 % 1024,2 hPa 0,0 l/m 0 min 0 min 0 W/m 16,7 km/h (3 Bft)
23.01.2015 23:58 -0,3 C -1,1 C 92 % 1024,2 hPa 0,0 l/m 0 min 0 min 0 W/m 23,0 km/h (4 Bft)
_ Min-Zeit 05:58 05:36 00:30 00:12 - - - - 18:32
Minimum _ -2,0 C -3,3 C 89 % 1021,9 hPa - - - - 0,0 km/h (0 Bft)
_ Max-Zeit 00:00 00:44 06:28 18:02 00:00 00:00 00:00 12:20 06:44
Maximum _ 0,5 C 0,0 C 94 % 1026,3 hPa 0,0 l/m 0 min 0 min 81 W/m 25,1 km/h
N-NO (4 Bft)
Durchschnitt _ -0,7 C -1,5 C 91 % 1024,7 hPa #0,0 l/m #0 min. #0 min. 43 W/m 9,8 km/h (2 Bft)
© 2015 W. Hausmann